Wetterdaten: Freitag, 15.07.2022
Datum Zeit Temp. Aussen Temp. o. S. Temp +5cm Feuchte Auss Luftdruck Regen Sonnenschein Regendauer Solar Windben Empfang
15.07.2022 00:00 17,4 C 16,1 C 13,3 C 74 % 1021,5 hPa 0,0 l/m 0 min 0 min 0 W/m 3,2 km/h (1 Bft) 95,74 %
15.07.2022 00:02 17,4 C 16,1 C 13,3 C 74 % 1021,5 hPa 0,0 l/m 0 min 0 min 0 W/m 6,4 km/h (2 Bft) 92,68 %
15.07.2022 00:04 17,4 C 16,7 C 13,3 C 74 % 1021,5 hPa 0,0 l/m 0 min 0 min 0 W/m 6,4 km/h (2 Bft) 95,74 %
15.07.2022 00:07 17,4 C 16,7 C 13,3 C 75 % 1021,5 hPa 0,0 l/m 0 min 0 min 0 W/m 3,2 km/h (1 Bft) 95,74 %
15.07.2022 00:08 17,4 C 16,7 C 13,3 C 75 % 1021,5 hPa 0,0 l/m 0 min 0 min 0 W/m 3,2 km/h (1 Bft) 95,74 %
15.07.2022 00:10 17,4 C 16,7 C 13,3 C 75 % 1021,5 hPa 0,0 l/m 0 min 0 min 0 W/m 6,4 km/h (2 Bft) 93,62 %
15.07.2022 00:12 17,3 C 16,1 C 13,3 C 75 % 1021,5 hPa 0,0 l/m 0 min 0 min 0 W/m 3,2 km/h (1 Bft) 95,65 %
15.07.2022 00:14 17,3 C 16,1 C 13,3 C 75 % 1021,6 hPa 0,0 l/m 0 min 0 min 0 W/m 12,9 km/h (3 Bft) 97,87 %
15.07.2022 00:16 17,3 C 16,1 C 12,8 C 75 % 1021,6 hPa 0,0 l/m 0 min 0 min 0 W/m 12,9 km/h (3 Bft) 97,87 %
15.07.2022 00:18 17,3 C 16,1 C 12,8 C 76 % 1021,6 hPa 0,0 l/m 0 min 0 min 0 W/m 6,4 km/h (2 Bft) 97,87 %
15.07.2022 00:20 17,2 C 16,1 C 12,8 C 76 % 1021,7 hPa 0,0 l/m 0 min 0 min 0 W/m 3,2 km/h (1 Bft) 97,87 %
15.07.2022 00:22 17,2 C 16,1 C 12,8 C 76 % 1021,7 hPa 0,0 l/m 0 min 0 min 0 W/m 3,2 km/h (1 Bft) 95,65 %
15.07.2022 00:24 17,1 C 16,1 C 12,8 C 76 % 1021,7 hPa 0,0 l/m 0 min 0 min 0 W/m 6,4 km/h (2 Bft) 95,74 %
15.07.2022 00:26 17,1 C 16,1 C 12,8 C 76 % 1021,7 hPa 0,0 l/m 0 min 0 min 0 W/m 9,7 km/h (2 Bft) 97,87 %
15.07.2022 00:28 17,1 C 16,1 C 12,8 C 76 % 1021,7 hPa 0,0 l/m 0 min 0 min 0 W/m 9,7 km/h (2 Bft) 97,87 %
15.07.2022 00:30 17,0 C 16,1 C 12,8 C 76 % 1021,8 hPa 0,0 l/m 0 min 0 min 0 W/m 6,4 km/h (2 Bft) 95,74 %
15.07.2022 00:32 16,9 C 16,1 C 12,8 C 77 % 1021,7 hPa 0,0 l/m 0 min 0 min 0 W/m 3,2 km/h (1 Bft) 95,74 %
15.07.2022 00:34 16,9 C 15,6 C 12,8 C 77 % 1021,9 hPa 0,0 l/m 0 min 0 min 0 W/m 9,7 km/h (2 Bft) 100,00 %
15.07.2022 00:36 16,9 C 16,1 C 12,8 C 77 % 1021,8 hPa 0,0 l/m 0 min 0 min 0 W/m 3,2 km/h (1 Bft) 100,00 %
15.07.2022 00:38 16,8 C 15,6 C 12,8 C 77 % 1021,9 hPa 0,0 l/m 0 min 0 min 0 W/m 9,7 km/h (2 Bft) 97,87 %
15.07.2022 00:40 16,8 C 15,6 C 12,8 C 77 % 1021,9 hPa 0,0 l/m 0 min 0 min 0 W/m 12,9 km/h (3 Bft) 100,00 %
15.07.2022 00:42 16,8 C 15,6 C 12,8 C 77 % 1021,9 hPa 0,0 l/m 0 min 0 min 0 W/m 9,7 km/h (2 Bft) 100,00 %
15.07.2022 00:44 16,8 C 15,6 C 12,8 C 77 % 1021,9 hPa 0,0 l/m 0 min 0 min 0 W/m 9,7 km/h (2 Bft) 100,00 %
15.07.2022 00:46 16,7 C 15,6 C 12,2 C 78 % 1021,9 hPa 0,0 l/m 0 min 0 min 0 W/m 6,4 km/h (2 Bft) 100,00 %
15.07.2022 00:48 16,7 C 15,6 C 12,2 C 78 % 1021,9 hPa 0,0 l/m 0 min 0 min 0 W/m 6,4 km/h (2 Bft) 97,87 %
15.07.2022 00:50 16,6 C 15,6 C 12,2 C 78 % 1021,9 hPa 0,0 l/m 0 min 0 min 0 W/m 12,9 km/h (3 Bft) 97,87 %
15.07.2022 00:52 16,6 C 15,6 C 12,2 C 78 % 1021,9 hPa 0,0 l/m 0 min 0 min 0 W/m 9,7 km/h (2 Bft) 97,87 %
15.07.2022 00:54 16,6 C 15,6 C 12,2 C 78 % 1022,0 hPa 0,0 l/m 0 min 0 min 0 W/m 6,4 km/h (2 Bft) 97,87 %
15.07.2022 00:56 16,5 C 15,6 C 12,2 C 79 % 1022,0 hPa 0,0 l/m 0 min 0 min 0 W/m 9,7 km/h (2 Bft) 93,62 %
15.07.2022 00:58 16,5 C 15,6 C 12,2 C 79 % 1021,9 hPa 0,0 l/m 0 min 0 min 0 W/m 12,9 km/h (3 Bft) 97,83 %
15.07.2022 01:00 16,4 C 15,6 C 12,2 C 79 % 1021,9 hPa 0,0 l/m 0 min 0 min 0 W/m 9,7 km/h (2 Bft) 97,78 %
15.07.2022 01:02 16,4 C 15,6 C 12,2 C 79 % 1021,9 hPa 0,0 l/m 0 min 0 min 0 W/m 6,4 km/h (2 Bft) 97,83 %
15.07.2022 01:04 16,4 C 15,6 C 12,2 C 79 % 1022,0 hPa 0,0 l/m 0 min 0 min 0 W/m 12,9 km/h (3 Bft) 97,87 %
15.07.2022 01:06 16,3 C 15,6 C 12,2 C 80 % 1021,9 hPa 0,0 l/m 0 min 0 min 0 W/m 9,7 km/h (2 Bft) 97,87 %
15.07.2022 01:08 16,3 C 15,0 C 12,2 C 80 % 1021,9 hPa 0,0 l/m 0 min 0 min 0 W/m 3,2 km/h (1 Bft) 97,87 %
15.07.2022 01:10 16,3 C 15,6 C 12,2 C 80 % 1021,9 hPa 0,0 l/m 0 min 0 min 0 W/m 6,4 km/h (2 Bft) 97,87 %
15.07.2022 01:12 16,2 C 15,6 C 12,2 C 80 % 1021,9 hPa 0,0 l/m 0 min 0 min 0 W/m 9,7 km/h (2 Bft) 97,87 %
15.07.2022 01:14 16,2 C 15,0 C 12,2 C 80 % 1022,0 hPa 0,0 l/m 0 min 0 min 0 W/m 6,4 km/h (2 Bft) 97,83 %
15.07.2022 01:16 16,2 C 15,0 C 11,7 C 81 % 1022,0 hPa 0,0 l/m 0 min 0 min 0 W/m 9,7 km/h (2 Bft) 97,87 %
15.07.2022 01:18 16,1 C 15,0 C 11,7 C 80 % 1022,0 hPa 0,0 l/m 0 min 0 min 0 W/m 6,4 km/h (2 Bft) 100,00 %
15.07.2022 01:20 16,1 C 15,0 C 11,7 C 81 % 1022,0 hPa 0,0 l/m 0 min 0 min 0 W/m 12,9 km/h (3 Bft) 100,00 %
15.07.2022 01:22 16,1 C 15,0 C 11,7 C 81 % 1022,0 hPa 0,0 l/m 0 min 0 min 0 W/m 16,1 km/h (3 Bft) 100,00 %
15.07.2022 01:24 16,0 C 15,0 C 11,7 C 81 % 1022,1 hPa 0,0 l/m 0 min 0 min 0 W/m 6,4 km/h (2 Bft) 97,87 %
15.07.2022 01:26 16,0 C 15,0 C 11,7 C 81 % 1022,1 hPa 0,0 l/m 0 min 0 min 0 W/m 9,7 km/h (2 Bft) 100,00 %
15.07.2022 01:28 15,9 C 15,0 C 11,7 C 81 % 1022,0 hPa 0,0 l/m 0 min 0 min 0 W/m 12,9 km/h (3 Bft) 100,00 %
15.07.2022 01:30 15,9 C 15,0 C 12,2 C 81 % 1022,1 hPa 0,0 l/m 0 min 0 min 0 W/m 3,2 km/h (1 Bft) 97,87 %
15.07.2022 01:32 15,9 C 15,0 C 11,7 C 81 % 1022,1 hPa 0,0 l/m 0 min 0 min 0 W/m 16,1 km/h (3 Bft) 100,00 %
15.07.2022 01:34 15,9 C 15,0 C 11,7 C 82 % 1022,1 hPa 0,0 l/m 0 min 0 min 0 W/m 3,2 km/h (1 Bft) 100,00 %
15.07.2022 01:36 15,9 C 15,0 C 11,7 C 81 % 1022,2 hPa 0,0 l/m 0 min 0 min 0 W/m 9,7 km/h (2 Bft) 100,00 %
15.07.2022 01:38 15,9 C 15,0 C 11,7 C 82 % 1022,2 hPa 0,0 l/m 0 min 0 min 0 W/m 6,4 km/h (2 Bft) 100,00 %
15.07.2022 01:40 15,9 C 15,0 C 11,7 C 82 % 1022,1 hPa 0,0 l/m 0 min 0 min 0 W/m 6,4 km/h (2 Bft) 100,00 %
15.07.2022 01:42 15,8 C 15,0 C 11,7 C 82 % 1022,2 hPa 0,0 l/m 0 min 0 min 0 W/m 3,2 km/h (1 Bft) 100,00 %
15.07.2022 01:44 15,8 C 15,0 C 11,7 C 82 % 1022,2 hPa 0,0 l/m 0 min 0 min 0 W/m 3,2 km/h (1 Bft) 100,00 %
15.07.2022 01:46 15,8 C 15,0 C 11,7 C 82 % 1022,2 hPa 0,0 l/m 0 min 0 min 0 W/m 3,2 km/h (1 Bft) 100,00 %
15.07.2022 01:48 15,8 C 14,4 C 11,7 C 82 % 1022,2 hPa 0,0 l/m 0 min 0 min 0 W/m 9,7 km/h (2 Bft) 100,00 %
15.07.2022 01:50 15,7 C 14,4 C 11,7 C 82 % 1022,2 hPa 0,0 l/m 0 min 0 min 0 W/m 3,2 km/h (1 Bft) 100,00 %
15.07.2022 01:52 15,7 C 14,4 C 11,7 C 82 % 1022,2 hPa 0,0 l/m 0 min 0 min 0 W/m 3,2 km/h (1 Bft) 100,00 %
15.07.2022 01:54 15,7 C 14,4 C 11,7 C 82 % 1022,2 hPa 0,0 l/m 0 min 0 min 0 W/m 3,2 km/h (1 Bft) 100,00 %
15.07.2022 01:56 15,7 C 14,4 C 11,7 C 82 % 1022,2 hPa 0,0 l/m 0 min 0 min 0 W/m 3,2 km/h (1 Bft) 97,87 %
15.07.2022 01:58 15,7 C 14,4 C 11,7 C 82 % 1022,2 hPa 0,0 l/m 0 min 0 min 0 W/m 0,0 km/h (0 Bft) 97,87 %
15.07.2022 02:00 15,7 C 14,4 C 11,7 C 83 % 1022,2 hPa 0,0 l/m 0 min 0 min 0 W/m 3,2 km/h (1 Bft) 100,00 %
15.07.2022 02:02 15,7 C 15,0 C 11,7 C 83 % 1022,3 hPa 0,0 l/m 0 min 0 min 0 W/m 9,7 km/h (2 Bft) 95,65 %
15.07.2022 02:04 15,7 C 14,4 C 11,7 C 83 % 1022,3 hPa 0,0 l/m 0 min 0 min 0 W/m 6,4 km/h (2 Bft) 100,00 %
15.07.2022 02:06 15,6 C 14,4 C 11,7 C 83 % 1022,2 hPa 0,0 l/m 0 min 0 min 0 W/m 9,7 km/h (2 Bft) 100,00 %
15.07.2022 02:08 15,6 C 14,4 C 11,7 C 83 % 1022,2 hPa 0,0 l/m 0 min 0 min 0 W/m 6,4 km/h (2 Bft) 100,00 %
15.07.2022 02:10 15,6 C 14,4 C 11,7 C 83 % 1022,2 hPa 0,0 l/m 0 min 0 min 0 W/m 0,0 km/h (0 Bft) 100,00 %
15.07.2022 02:12 15,6 C 14,4 C 11,1 C 83 % 1022,2 hPa 0,0 l/m 0 min 0 min 0 W/m 9,7 km/h (2 Bft) 100,00 %
15.07.2022 02:14 15,5 C 14,4 C 11,1 C 83 % 1022,2 hPa 0,0 l/m 0 min 0 min 0 W/m 0,0 km/h (0 Bft) 100,00 %
15.07.2022 02:16 15,5 C 14,4 C 11,1 C 83 % 1022,2 hPa 0,0 l/m 0 min 0 min 0 W/m 3,2 km/h (1 Bft) 97,87 %
15.07.2022 02:18 15,4 C 14,4 C 11,1 C 83 % 1022,2 hPa 0,0 l/m 0 min 0 min 0 W/m 0,0 km/h (0 Bft) 100,00 %
15.07.2022 02:20 15,4 C 14,4 C 11,1 C 83 % 1022,1 hPa 0,0 l/m 0 min 0 min 0 W/m 3,2 km/h (1 Bft) 100,00 %
15.07.2022 02:22 15,4 C 14,4 C 11,1 C 83 % 1022,2 hPa 0,0 l/m 0 min 0 min 0 W/m 0,0 km/h (0 Bft) 97,87 %
15.07.2022 02:24 15,4 C 14,4 C 11,1 C 83 % 1022,1 hPa 0,0 l/m 0 min 0 min 0 W/m 0,0 km/h (0 Bft) 97,87 %
15.07.2022 02:26 15,3 C 14,4 C 11,1 C 83 % 1022,2 hPa 0,0 l/m 0 min 0 min 0 W/m 0,0 km/h (0 Bft) 97,83 %
15.07.2022 02:28 15,3 C 14,4 C 11,1 C 84 % 1022,2 hPa 0,0 l/m 0 min 0 min 0 W/m 3,2 km/h (1 Bft) 100,00 %
15.07.2022 02:30 15,3 C 14,4 C 11,1 C 84 % 1022,1 hPa 0,0 l/m 0 min 0 min 0 W/m 3,2 km/h (1 Bft) 95,74 %
15.07.2022 02:32 15,3 C 14,4 C 11,1 C 84 % 1022,1 hPa 0,0 l/m 0 min 0 min 0 W/m 3,2 km/h (1 Bft) 91,49 %
15.07.2022 02:34 15,3 C 14,4 C 11,1 C 84 % 1022,1 hPa 0,0 l/m 0 min 0 min 0 W/m 0,0 km/h (0 Bft) 93,62 %
15.07.2022 02:36 15,3 C 14,4 C 11,1 C 84 % 1022,2 hPa 0,0 l/m 0 min 0 min 0 W/m 3,2 km/h (1 Bft) 93,62 %
15.07.2022 02:38 15,2 C 14,4 C 11,1 C 84 % 1022,2 hPa 0,0 l/m 0 min 0 min 0 W/m 0,0 km/h (0 Bft) 93,48 %
15.07.2022 02:40 15,2 C 14,4 C 11,1 C 84 % 1022,2 hPa 0,0 l/m 0 min 0 min 0 W/m 3,2 km/h (1 Bft) 91,49 %
15.07.2022 02:42 15,2 C 14,4 C 11,1 C 84 % 1022,2 hPa 0,0 l/m 0 min 0 min 0 W/m 3,2 km/h (1 Bft) 93,62 %
15.07.2022 02:44 15,2 C 14,4 C 11,1 C 84 % 1022,2 hPa 0,0 l/m 0 min 0 min 0 W/m 0,0 km/h (0 Bft) 93,62 %
15.07.2022 02:46 15,2 C 14,4 C 11,1 C 84 % 1022,1 hPa 0,0 l/m 0 min 0 min 0 W/m 3,2 km/h (1 Bft) 93,62 %
15.07.2022 02:48 15,2 C 14,4 C 11,1 C 84 % 1022,2 hPa 0,0 l/m 0 min 0 min 0 W/m 3,2 km/h (1 Bft) 89,36 %
15.07.2022 02:50 15,2 C 14,4 C 11,1 C 84 % 1022,1 hPa 0,0 l/m 0 min 0 min 0 W/m 3,2 km/h (1 Bft) 93,48 %
15.07.2022 02:52 15,1 C 14,4 C 11,1 C 84 % 1022,2 hPa 0,0 l/m 0 min 0 min 0 W/m 6,4 km/h (2 Bft) 93,62 %
15.07.2022 02:54 15,1 C 14,4 C 11,1 C 84 % 1022,2 hPa 0,0 l/m 0 min 0 min 0 W/m 3,2 km/h (1 Bft) 93,62 %
15.07.2022 02:56 15,1 C 14,4 C 11,1 C 84 % 1022,2 hPa 0,0 l/m 0 min 0 min 0 W/m 3,2 km/h (1 Bft) 93,62 %
15.07.2022 02:58 15,1 C 14,4 C 11,1 C 84 % 1022,2 hPa 0,0 l/m 0 min 0 min 0 W/m 6,4 km/h (2 Bft) 93,62 %
15.07.2022 03:00 15,1 C 14,4 C 11,1 C 84 % 1022,2 hPa 0,0 l/m 0 min 0 min 0 W/m 3,2 km/h (1 Bft) 91,84 %
15.07.2022 03:02 15,1 C 14,4 C 11,1 C 84 % 1022,2 hPa 0,0 l/m 0 min 0 min 0 W/m 3,2 km/h (1 Bft) 91,49 %
15.07.2022 03:04 15,0 C 14,4 C 11,1 C 84 % 1022,2 hPa 0,0 l/m 0 min 0 min 0 W/m 6,4 km/h (2 Bft) 95,74 %
15.07.2022 03:06 15,0 C 14,4 C 11,1 C 84 % 1022,2 hPa 0,0 l/m 0 min 0 min 0 W/m 6,4 km/h (2 Bft) 95,74 %
15.07.2022 03:08 14,9 C 14,4 C 11,1 C 84 % 1022,2 hPa 0,0 l/m 0 min 0 min 0 W/m 3,2 km/h (1 Bft) 93,62 %
15.07.2022 03:10 14,9 C 14,4 C 11,1 C 84 % 1022,2 hPa 0,0 l/m 0 min 0 min 0 W/m 6,4 km/h (2 Bft) 95,65 %
15.07.2022 03:12 14,9 C 14,4 C 11,1 C 85 % 1022,2 hPa 0,0 l/m 0 min 0 min 0 W/m 3,2 km/h (1 Bft) 97,87 %
15.07.2022 03:14 14,9 C 14,4 C 11,1 C 85 % 1022,2 hPa 0,0 l/m 0 min 0 min 0 W/m 3,2 km/h (1 Bft) 97,87 %
15.07.2022 03:16 14,9 C 14,4 C 11,1 C 85 % 1022,2 hPa 0,0 l/m 0 min 0 min 0 W/m 3,2 km/h (1 Bft) 97,87 %
15.07.2022 03:18 14,8 C 14,4 C 11,1 C 85 % 1022,1 hPa 0,0 l/m 0 min 0 min 0 W/m 6,4 km/h (2 Bft) 95,74 %
15.07.2022 03:20 14,8 C 13,9 C 10,6 C 85 % 1022,2 hPa 0,0 l/m 0 min 0 min 0 W/m 9,7 km/h (2 Bft) 97,87 %
15.07.2022 03:22 14,8 C 13,9 C 11,1 C 85 % 1022,2 hPa 0,0 l/m 0 min 0 min 0 W/m 6,4 km/h (2 Bft) 93,48 %
15.07.2022 03:24 14,8 C 13,9 C 11,1 C 85 % 1022,1 hPa 0,0 l/m 0 min 0 min 0 W/m 3,2 km/h (1 Bft) 97,87 %
15.07.2022 03:26 14,8 C 13,9 C 11,1 C 85 % 1022,2 hPa 0,0 l/m 0 min 0 min 0 W/m 9,7 km/h (2 Bft) 97,87 %
15.07.2022 03:28 14,8 C 13,9 C 11,1 C 85 % 1022,2 hPa 0,0 l/m 0 min 0 min 0 W/m 6,4 km/h (2 Bft) 97,87 %
15.07.2022 03:30 14,8 C 13,9 C 11,1 C 85 % 1022,2 hPa 0,0 l/m 0 min 0 min 0 W/m 3,2 km/h (1 Bft) 97,87 %
15.07.2022 03:32 14,8 C 13,9 C 11,1 C 85 % 1022,3 hPa 0,0 l/m 0 min 0 min 0 W/m 3,2 km/h (1 Bft) 100,00 %
15.07.2022 03:34 14,8 C 13,9 C 11,1 C 85 % 1022,2 hPa 0,0 l/m 0 min 0 min 0 W/m 3,2 km/h (1 Bft) 100,00 %
15.07.2022 03:36 14,8 C 13,9 C 11,1 C 85 % 1022,3 hPa 0,0 l/m 0 min 0 min 0 W/m 0,0 km/h (0 Bft) 100,00 %
15.07.2022 03:38 14,8 C 13,9 C 11,1 C 85 % 1022,3 hPa 0,0 l/m 0 min 0 min 0 W/m 3,2 km/h (1 Bft) 100,00 %
15.07.2022 03:40 14,8 C 13,9 C 11,1 C 85 % 1022,4 hPa 0,0 l/m 0 min 0 min 0 W/m 3,2 km/h (1 Bft) 97,87 %
15.07.2022 03:42 14,8 C 13,9 C 11,1 C 85 % 1022,4 hPa 0,0 l/m 0 min 0 min 0 W/m 3,2 km/h (1 Bft) 100,00 %
15.07.2022 03:44 14,8 C 13,9 C 11,1 C 85 % 1022,4 hPa 0,0 l/m 0 min 0 min 0 W/m 0,0 km/h (0 Bft) 100,00 %
15.07.2022 03:46 14,8 C 13,9 C 11,1 C 85 % 1022,3 hPa 0,0 l/m 0 min 0 min 0 W/m 0,0 km/h (0 Bft) 97,83 %
15.07.2022 03:48 14,8 C 13,9 C 11,1 C 85 % 1022,3 hPa 0,0 l/m 0 min 0 min 0 W/m 0,0 km/h (0 Bft) 97,87 %
15.07.2022 03:50 14,8 C 13,9 C 11,1 C 85 % 1022,3 hPa 0,0 l/m 0 min 0 min 0 W/m 0,0 km/h (0 Bft) 97,87 %
15.07.2022 03:52 14,8 C 13,9 C 11,1 C 85 % 1022,4 hPa 0,0 l/m 0 min 0 min 0 W/m 3,2 km/h (1 Bft) 100,00 %
15.07.2022 03:54 14,8 C 13,9 C 11,1 C 85 % 1022,4 hPa 0,0 l/m 0 min 0 min 0 W/m 0,0 km/h (0 Bft) 100,00 %
15.07.2022 03:56 14,8 C 13,9 C 11,1 C 85 % 1022,4 hPa 0,0 l/m 0 min 0 min 0 W/m 0,0 km/h (0 Bft) 100,00 %
15.07.2022 03:58 14,7 C 13,9 C 11,1 C 85 % 1022,4 hPa 0,0 l/m 0 min 0 min 0 W/m 0,0 km/h (0 Bft) 100,00 %
15.07.2022 04:00 14,7 C 13,9 C 11,1 C 85 % 1022,4 hPa 0,0 l/m 0 min 0 min 0 W/m 0,0 km/h (0 Bft) 100,00 %
15.07.2022 04:02 14,7 C 13,9 C 11,1 C 86 % 1022,4 hPa 0,0 l/m 0 min 0 min 0 W/m 0,0 km/h (0 Bft) 100,00 %
15.07.2022 04:04 14,7 C 13,9 C 11,1 C 86 % 1022,4 hPa 0,0 l/m 0 min 0 min 0 W/m 3,2 km/h (1 Bft) 95,74 %
15.07.2022 04:06 14,7 C 13,9 C 10,6 C 86 % 1022,4 hPa 0,0 l/m 0 min 0 min 0 W/m 3,2 km/h (1 Bft) 97,87 %
15.07.2022 04:08 14,7 C 13,9 C 10,6 C 86 % 1022,4 hPa 0,0 l/m 0 min 0 min 0 W/m 0,0 km/h (0 Bft) 100,00 %
15.07.2022 04:10 14,7 C 13,9 C 10,6 C 86 % 1022,4 hPa 0,0 l/m 0 min 0 min 0 W/m 3,2 km/h (1 Bft) 100,00 %
15.07.2022 04:12 14,6 C 13,9 C 10,6 C 86 % 1022,4 hPa 0,0 l/m 0 min 0 min 0 W/m 3,2 km/h (1 Bft) 100,00 %
15.07.2022 04:14 14,6 C 13,3 C 10,6 C 86 % 1022,4 hPa 0,0 l/m 0 min 0 min 0 W/m 0,0 km/h (0 Bft) 97,87 %
15.07.2022 04:16 14,6 C 13,3 C 10,6 C 86 % 1022,4 hPa 0,0 l/m 0 min 0 min 0 W/m 3,2 km/h (1 Bft) 97,87 %
15.07.2022 04:18 14,6 C 13,3 C 10,6 C 86 % 1022,4 hPa 0,0 l/m 0 min 0 min 0 W/m 3,2 km/h (1 Bft) 97,87 %
15.07.2022 04:20 14,5 C 13,3 C 10,6 C 86 % 1022,3 hPa 0,0 l/m 0 min 0 min 0 W/m 3,2 km/h (1 Bft) 97,87 %
15.07.2022 04:22 14,4 C 13,3 C 10,6 C 86 % 1022,4 hPa 0,0 l/m 0 min 0 min 0 W/m 6,4 km/h (2 Bft) 95,65 %
15.07.2022 04:24 14,4 C 13,3 C 10,0 C 86 % 1022,4 hPa 0,0 l/m 0 min 0 min 0 W/m 3,2 km/h (1 Bft) 97,87 %
15.07.2022 04:26 14,4 C 13,3 C 10,0 C 86 % 1022,4 hPa 0,0 l/m 0 min 0 min 0 W/m 3,2 km/h (1 Bft) 97,87 %
15.07.2022 04:28 14,3 C 13,3 C 10,0 C 86 % 1022,4 hPa 0,0 l/m 0 min 0 min 0 W/m 3,2 km/h (1 Bft) 97,87 %
15.07.2022 04:30 14,3 C 13,3 C 10,0 C 86 % 1022,4 hPa 0,0 l/m 0 min 0 min 0 W/m 3,2 km/h (1 Bft) 97,87 %
15.07.2022 04:32 14,3 C 13,3 C 10,0 C 86 % 1022,3 hPa 0,0 l/m 0 min 0 min 0 W/m 3,2 km/h (1 Bft) 97,83 %
15.07.2022 04:34 14,3 C 13,3 C 10,0 C 86 % 1022,4 hPa 0,0 l/m 0 min 0 min 0 W/m 3,2 km/h (1 Bft) 97,87 %
15.07.2022 04:36 14,3 C 13,3 C 10,0 C 86 % 1022,4 hPa 0,0 l/m 0 min 0 min 0 W/m 3,2 km/h (1 Bft) 97,87 %
15.07.2022 04:38 14,3 C 12,8 C 10,0 C 86 % 1022,4 hPa 0,0 l/m 0 min 0 min 0 W/m 3,2 km/h (1 Bft) 95,74 %
15.07.2022 04:40 14,2 C 12,8 C 10,0 C 86 % 1022,3 hPa 0,0 l/m 0 min 0 min 0 W/m 0,0 km/h (0 Bft) 97,87 %
15.07.2022 04:42 14,2 C 12,8 C 10,0 C 86 % 1022,4 hPa 0,0 l/m 0 min 0 min 0 W/m 3,2 km/h (1 Bft) 100,00 %
15.07.2022 04:44 14,1 C 12,8 C 10,0 C 86 % 1022,4 hPa 0,0 l/m 0 min 0 min 0 W/m 0,0 km/h (0 Bft) 97,83 %
15.07.2022 04:46 14,1 C 12,8 C 10,0 C 86 % 1022,4 hPa 0,0 l/m 0 min 0 min 0 W/m 0,0 km/h (0 Bft) 100,00 %
15.07.2022 04:48 14,1 C 12,8 C 10,0 C 86 % 1022,4 hPa 0,0 l/m 0 min 0 min 0 W/m 0,0 km/h (0 Bft) 100,00 %
15.07.2022 04:50 14,0 C 12,8 C 10,0 C 87 % 1022,5 hPa 0,0 l/m 0 min 0 min 0 W/m 0,0 km/h (0 Bft) 100,00 %
15.07.2022 04:52 14,0 C 12,8 C 10,0 C 87 % 1022,4 hPa 0,0 l/m 0 min 0 min 0 W/m 0,0 km/h (0 Bft) 97,87 %
15.07.2022 04:54 13,9 C 12,8 C 10,0 C 87 % 1022,5 hPa 0,0 l/m 0 min 0 min 0 W/m 0,0 km/h (0 Bft) 100,00 %
15.07.2022 04:56 13,9 C 12,8 C 10,0 C 87 % 1022,5 hPa 0,0 l/m 0 min 0 min 0 W/m 3,2 km/h (1 Bft) 100,00 %
15.07.2022 04:58 13,9 C 12,8 C 10,0 C 87 % 1022,5 hPa 0,0 l/m 0 min 0 min 0 W/m 3,2 km/h (1 Bft) 100,00 %
15.07.2022 05:00 13,8 C 12,8 C 9,4 C 87 % 1022,5 hPa 0,0 l/m 0 min 0 min 0 W/m 3,2 km/h (1 Bft) 100,00 %
15.07.2022 05:02 13,8 C 12,8 C 9,4 C 87 % 1022,5 hPa 0,0 l/m 0 min 0 min 0 W/m 3,2 km/h (1 Bft) 95,74 %
15.07.2022 05:04 13,8 C 12,8 C 9,4 C 87 % 1022,5 hPa 0,0 l/m 0 min 0 min 0 W/m 3,2 km/h (1 Bft) 97,87 %
15.07.2022 05:06 13,7 C 12,8 C 9,4 C 87 % 1022,6 hPa 0,0 l/m 0 min 0 min 0 W/m 3,2 km/h (1 Bft) 97,78 %
15.07.2022 05:08 13,7 C 12,8 C 9,4 C 87 % 1022,6 hPa 0,0 l/m 0 min 0 min 0 W/m 3,2 km/h (1 Bft) 97,87 %
15.07.2022 05:10 13,7 C 12,8 C 9,4 C 87 % 1022,6 hPa 0,0 l/m 0 min 0 min 0 W/m 3,2 km/h (1 Bft) 97,87 %
15.07.2022 05:12 13,6 C 12,2 C 9,4 C 87 % 1022,6 hPa 0,0 l/m 0 min 0 min 0 W/m 0,0 km/h (0 Bft) 97,83 %
15.07.2022 05:14 13,6 C 12,2 C 9,4 C 87 % 1022,7 hPa 0,0 l/m 0 min 0 min 0 W/m 0,0 km/h (0 Bft) 97,87 %
15.07.2022 05:16 13,6 C 12,2 C 9,4 C 87 % 1022,7 hPa 0,0 l/m 0 min 0 min 0 W/m 3,2 km/h (1 Bft) 95,74 %
15.07.2022 05:18 13,6 C 12,2 C 9,4 C 87 % 1022,7 hPa 0,0 l/m 0 min 0 min 0 W/m 3,2 km/h (1 Bft) 97,87 %
15.07.2022 05:20 13,5 C 12,2 C 9,4 C 87 % 1022,8 hPa 0,0 l/m 0 min 0 min 0 W/m 0,0 km/h (0 Bft) 93,62 %
15.07.2022 05:22 13,4 C 12,2 C 9,4 C 87 % 1022,8 hPa 0,0 l/m 0 min 0 min 0 W/m 0,0 km/h (0 Bft) 97,87 %
15.07.2022 05:24 13,4 C 12,2 C 9,4 C 87 % 1022,8 hPa 0,0 l/m 0 min 0 min 0 W/m 0,0 km/h (0 Bft) 97,83 %
15.07.2022 05:26 13,4 C 12,2 C 9,4 C 87 % 1022,7 hPa 0,0 l/m 0 min 0 min 0 W/m 0,0 km/h (0 Bft) 95,74 %
15.07.2022 05:28 13,4 C 12,2 C 9,4 C 87 % 1022,7 hPa 0,0 l/m 0 min 0 min 0 W/m 0,0 km/h (0 Bft) 97,87 %
15.07.2022 05:30 13,3 C 12,2 C 9,4 C 87 % 1022,8 hPa 0,0 l/m 0 min 0 min 0 W/m 0,0 km/h (0 Bft) 97,87 %
15.07.2022 05:32 13,3 C 12,2 C 9,4 C 87 % 1022,8 hPa 0,0 l/m 0 min 0 min 0 W/m 0,0 km/h (0 Bft) 95,74 %
15.07.2022 05:34 13,3 C 12,2 C 9,4 C 87 % 1022,8 hPa 0,0 l/m 0 min 0 min 0 W/m 3,2 km/h (1 Bft) 97,87 %
15.07.2022 05:36 13,3 C 12,2 C 9,4 C 88 % 1022,8 hPa 0,0 l/m 0 min 0 min 5 W/m 3,2 km/h (1 Bft) 97,83 %
15.07.2022 05:38 13,3 C 12,2 C 9,4 C 88 % 1022,8 hPa 0,0 l/m 0 min 0 min 5 W/m 3,2 km/h (1 Bft) 97,87 %
15.07.2022 05:40 13,3 C 12,2 C 9,4 C 88 % 1022,8 hPa 0,0 l/m 0 min 0 min 5 W/m 0,0 km/h (0 Bft) 97,87 %
15.07.2022 05:42 13,3 C 12,2 C 9,4 C 88 % 1022,9 hPa 0,0 l/m 0 min 0 min 6 W/m 3,2 km/h (1 Bft) 97,87 %
15.07.2022 05:44 13,3 C 12,2 C 9,4 C 88 % 1022,8 hPa 0,0 l/m 0 min 0 min 7 W/m 6,4 km/h (2 Bft) 100,00 %
15.07.2022 05:46 13,2 C 12,2 C 8,9 C 88 % 1022,9 hPa 0,0 l/m 0 min 0 min 8 W/m 6,4 km/h (2 Bft) 100,00 %
15.07.2022 05:48 13,2 C 12,2 C 8,9 C 88 % 1022,9 hPa 0,0 l/m 0 min 0 min 9 W/m 3,2 km/h (1 Bft) 97,83 %
15.07.2022 05:50 13,2 C 12,2 C 9,4 C 88 % 1022,9 hPa 0,0 l/m 0 min 0 min 11 W/m 3,2 km/h (1 Bft) 100,00 %
15.07.2022 05:52 13,2 C 12,2 C 9,4 C 89 % 1022,9 hPa 0,0 l/m 0 min 0 min 12 W/m 3,2 km/h (1 Bft) 100,00 %
15.07.2022 05:54 13,2 C 12,2 C 9,4 C 89 % 1023,0 hPa 0,0 l/m 0 min 0 min 13 W/m 0,0 km/h (0 Bft) 97,87 %
15.07.2022 05:56 13,2 C 12,2 C 9,4 C 89 % 1023,0 hPa 0,0 l/m 0 min 0 min 15 W/m 3,2 km/h (1 Bft) 97,87 %
15.07.2022 05:58 13,1 C 12,2 C 9,4 C 89 % 1023,0 hPa 0,0 l/m 0 min 0 min 18 W/m 3,2 km/h (1 Bft) 97,87 %
15.07.2022 06:00 13,1 C 12,2 C 9,4 C 89 % 1023,0 hPa 0,0 l/m 0 min 0 min 19 W/m 3,2 km/h (1 Bft) 97,83 %
15.07.2022 06:02 13,1 C 12,2 C 9,4 C 89 % 1023,1 hPa 0,0 l/m 0 min 0 min 20 W/m 0,0 km/h (0 Bft) 93,62 %
15.07.2022 06:04 13,1 C 12,2 C 9,4 C 89 % 1023,1 hPa 0,0 l/m 0 min 0 min 22 W/m 3,2 km/h (1 Bft) 93,62 %
15.07.2022 06:07 13,1 C 12,2 C 9,4 C 89 % 1023,1 hPa 0,0 l/m 0 min 0 min 26 W/m 3,2 km/h (1 Bft) 93,62 %
15.07.2022 06:08 13,1 C 12,2 C 9,4 C 89 % 1023,1 hPa 0,0 l/m 0 min 0 min 25 W/m 3,2 km/h (1 Bft) 94,74 %
15.07.2022 06:10 13,1 C 12,2 C 9,4 C 89 % 1023,1 hPa 0,0 l/m 0 min 0 min 28 W/m 3,2 km/h (1 Bft) 95,74 %
15.07.2022 06:12 13,1 C 12,2 C 9,4 C 89 % 1023,1 hPa 0,0 l/m 0 min 0 min 30 W/m 3,2 km/h (1 Bft) 53,33 %
15.07.2022 06:14 13,1 C 12,2 C 9,4 C 89 % 1023,1 hPa 0,0 l/m 0 min 0 min 32 W/m 3,2 km/h (1 Bft) 95,74 %
15.07.2022 06:16 13,1 C 12,2 C 9,4 C 89 % 1023,1 hPa 0,0 l/m 0 min 0 min 32 W/m 0,0 km/h (0 Bft) 93,62 %
15.07.2022 06:18 13,1 C 12,2 C 9,4 C 89 % 1023,1 hPa 0,0 l/m 0 min 0 min 33 W/m 6,4 km/h (2 Bft) 97,87 %
15.07.2022 06:20 13,1 C 12,2 C 9,4 C 89 % 1023,2 hPa 0,0 l/m 0 min 0 min 33 W/m 3,2 km/h (1 Bft) 97,83 %
15.07.2022 06:22 13,1 C 12,2 C 9,4 C 89 % 1023,2 hPa 0,0 l/m 0 min 0 min 34 W/m 3,2 km/h (1 Bft) 97,87 %
15.07.2022 06:24 13,1 C 12,2 C 9,4 C 89 % 1023,2 hPa 0,0 l/m 0 min 0 min 35 W/m 3,2 km/h (1 Bft) 97,87 %
15.07.2022 06:26 13,1 C 12,2 C 9,4 C 89 % 1023,2 hPa 0,0 l/m 0 min 0 min 37 W/m 3,2 km/h (1 Bft) 97,87 %
15.07.2022 06:28 13,1 C 12,2 C 9,4 C 89 % 1023,3 hPa 0,0 l/m 0 min 0 min 39 W/m 3,2 km/h (1 Bft) 95,74 %
15.07.2022 06:30 13,1 C 12,8 C 9,4 C 90 % 1023,3 hPa 0,0 l/m 0 min 0 min 41 W/m 3,2 km/h (1 Bft) 97,87 %
15.07.2022 06:32 13,1 C 12,8 C 9,4 C 90 % 1023,3 hPa 0,0 l/m 0 min 0 min 44 W/m 6,4 km/h (2 Bft) 95,65 %
15.07.2022 06:34 13,1 C 12,8 C 9,4 C 90 % 1023,3 hPa 0,0 l/m 0 min 0 min 47 W/m 6,4 km/h (2 Bft) 97,87 %
15.07.2022 06:36 13,1 C 12,8 C 9,4 C 90 % 1023,4 hPa 0,0 l/m 0 min 0 min 50 W/m 12,9 km/h (3 Bft) 97,87 %
15.07.2022 06:38 13,1 C 12,8 C 9,4 C 90 % 1023,4 hPa 0,0 l/m 0 min 0 min 53 W/m 3,2 km/h (1 Bft) 97,87 %
15.07.2022 06:40 13,1 C 12,8 C 9,4 C 90 % 1023,3 hPa 0,0 l/m 0 min 0 min 54 W/m 6,4 km/h (2 Bft) 97,87 %
15.07.2022 06:42 13,1 C 12,8 C 9,4 C 90 % 1023,4 hPa 0,0 l/m 0 min 0 min 56 W/m 6,4 km/h (2 Bft) 97,87 %
15.07.2022 06:44 13,1 C 12,8 C 9,4 C 90 % 1023,5 hPa 0,0 l/m 0 min 0 min 58 W/m 9,7 km/h (2 Bft) 97,83 %
15.07.2022 06:46 13,1 C 12,8 C 9,4 C 90 % 1023,5 hPa 0,0 l/m 0 min 0 min 59 W/m 6,4 km/h (2 Bft) 95,74 %
15.07.2022 06:48 13,1 C 12,8 C 9,4 C 90 % 1023,5 hPa 0,0 l/m 0 min 0 min 62 W/m 3,2 km/h (1 Bft) 97,87 %
15.07.2022 06:50 13,2 C 12,8 C 9,4 C 90 % 1023,5 hPa 0,0 l/m 0 min 0 min 67 W/m 3,2 km/h (1 Bft) 95,74 %
15.07.2022 06:52 13,3 C 13,3 C 10,0 C 90 % 1023,5 hPa 0,0 l/m 0 min 0 min 71 W/m 3,2 km/h (1 Bft) 97,87 %
15.07.2022 06:54 13,3 C 13,3 C 10,0 C 90 % 1023,5 hPa 0,0 l/m 0 min 0 min 75 W/m 3,2 km/h (1 Bft) 95,74 %
15.07.2022 06:56 13,4 C 13,3 C 10,0 C 90 % 1023,5 hPa 0,0 l/m 0 min 0 min 77 W/m 3,2 km/h (1 Bft) 97,83 %
15.07.2022 06:58 13,4 C 13,3 C 10,0 C 90 % 1023,6 hPa 0,0 l/m 0 min 0 min 79 W/m 6,4 km/h (2 Bft) 97,87 %
15.07.2022 07:00 13,4 C 13,3 C 10,0 C 90 % 1023,6 hPa 0,0 l/m 0 min 0 min 82 W/m 9,7 km/h (2 Bft) 97,87 %
15.07.2022 07:02 13,4 C 13,3 C 10,0 C 90 % 1023,6 hPa 0,0 l/m 0 min 0 min 85 W/m 6,4 km/h (2 Bft) 97,87 %
15.07.2022 07:04 13,5 C 13,9 C 10,6 C 90 % 1023,6 hPa 0,0 l/m 0 min 0 min 87 W/m 3,2 km/h (1 Bft) 97,87 %
15.07.2022 07:06 13,6 C 13,9 C 10,6 C 90 % 1023,6 hPa 0,0 l/m 0 min 0 min 89 W/m 3,2 km/h (1 Bft) 97,87 %
15.07.2022 07:08 13,6 C 13,9 C 10,6 C 90 % 1023,5 hPa 0,0 l/m 0 min 0 min 92 W/m 3,2 km/h (1 Bft) 100,00 %
15.07.2022 07:10 13,7 C 13,9 C 10,6 C 90 % 1023,5 hPa 0,0 l/m 0 min 0 min 96 W/m 3,2 km/h (1 Bft) 97,87 %
15.07.2022 07:12 13,8 C 13,9 C 10,6 C 90 % 1023,6 hPa 0,0 l/m 0 min 0 min 98 W/m 3,2 km/h (1 Bft) 97,87 %
15.07.2022 07:14 13,8 C 13,9 C 10,6 C 90 % 1023,6 hPa 0,0 l/m 0 min 0 min 101 W/m 3,2 km/h (1 Bft) 97,87 %
15.07.2022 07:16 13,8 C 13,9 C 10,6 C 90 % 1023,5 hPa 0,0 l/m 0 min 0 min 104 W/m 3,2 km/h (1 Bft) 97,87 %
15.07.2022 07:18 13,9 C 13,9 C 10,6 C 90 % 1023,5 hPa 0,0 l/m 0 min 0 min 106 W/m 3,2 km/h (1 Bft) 100,00 %
15.07.2022 07:20 14,0 C 13,9 C 10,6 C 90 % 1023,5 hPa 0,0 l/m 0 min 0 min 108 W/m 3,2 km/h (1 Bft) 97,83 %
15.07.2022 07:22 14,1 C 14,4 C 10,6 C 89 % 1023,5 hPa 0,0 l/m 0 min 0 min 109 W/m 9,7 km/h (2 Bft) 97,87 %
15.07.2022 07:24 14,1 C 14,4 C 11,1 C 89 % 1023,5 hPa 0,0 l/m 0 min 0 min 111 W/m 9,7 km/h (2 Bft) 97,87 %
15.07.2022 07:26 14,1 C 14,4 C 11,1 C 89 % 1023,5 hPa 0,0 l/m 0 min 0 min 110 W/m 3,2 km/h (1 Bft) 100,00 %
15.07.2022 07:28 14,2 C 14,4 C 11,1 C 89 % 1023,5 hPa 0,0 l/m 0 min 0 min 106 W/m 3,2 km/h (1 Bft) 100,00 %
15.07.2022 07:30 14,3 C 14,4 C 11,1 C 89 % 1023,5 hPa 0,0 l/m 0 min 0 min 103 W/m 9,7 km/h (2 Bft) 95,74 %
15.07.2022 07:32 14,3 C 14,4 C 11,1 C 88 % 1023,5 hPa 0,0 l/m 0 min 0 min 102 W/m 6,4 km/h (2 Bft) 95,65 %
15.07.2022 07:34 14,3 C 14,4 C 11,1 C 88 % 1023,5 hPa 0,0 l/m 0 min 0 min 102 W/m 6,4 km/h (2 Bft) 97,87 %
15.07.2022 07:36 14,3 C 14,4 C 11,1 C 88 % 1023,5 hPa 0,0 l/m 0 min 0 min 102 W/m 9,7 km/h (2 Bft) 95,74 %
15.07.2022 07:38 14,3 C 14,4 C 11,1 C 87 % 1023,5 hPa 0,0 l/m 0 min 0 min 99 W/m 9,7 km/h (2 Bft) 93,62 %
15.07.2022 07:40 14,3 C 14,4 C 11,1 C 87 % 1023,5 hPa 0,0 l/m 0 min 0 min 98 W/m 6,4 km/h (2 Bft) 95,74 %
15.07.2022 07:42 14,4 C 14,4 C 11,1 C 87 % 1023,5 hPa 0,0 l/m 0 min 0 min 99 W/m 3,2 km/h (1 Bft) 95,74 %
15.07.2022 07:44 14,4 C 14,4 C 11,1 C 87 % 1023,5 hPa 0,0 l/m 0 min 0 min 94 W/m 6,4 km/h (2 Bft) 93,48 %
15.07.2022 07:46 14,5 C 14,4 C 11,1 C 87 % 1023,5 hPa 0,0 l/m 0 min 0 min 89 W/m 6,4 km/h (2 Bft) 95,74 %
15.07.2022 07:48 14,5 C 14,4 C 11,1 C 87 % 1023,5 hPa 0,0 l/m 0 min 0 min 87 W/m 3,2 km/h (1 Bft) 95,74 %
15.07.2022 07:50 14,6 C 14,4 C 11,1 C 87 % 1023,5 hPa 0,0 l/m 0 min 0 min 84 W/m 6,4 km/h (2 Bft) 93,62 %
15.07.2022 07:52 14,6 C 14,4 C 11,1 C 86 % 1023,5 hPa 0,0 l/m 0 min 0 min 95 W/m 9,7 km/h (2 Bft) 97,87 %
15.07.2022 07:54 14,6 C 14,4 C 11,1 C 86 % 1023,5 hPa 0,0 l/m 0 min 0 min 90 W/m 6,4 km/h (2 Bft) 95,65 %
15.07.2022 07:56 14,7 C 14,4 C 11,1 C 86 % 1023,5 hPa 0,0 l/m 0 min 0 min 72 W/m 3,2 km/h (1 Bft) 93,62 %
15.07.2022 07:58 14,7 C 14,4 C 11,1 C 86 % 1023,4 hPa 0,0 l/m 0 min 0 min 69 W/m 3,2 km/h (1 Bft) 93,62 %
15.07.2022 08:00 14,7 C 14,4 C 11,1 C 86 % 1023,5 hPa 0,0 l/m 0 min 0 min 67 W/m 6,4 km/h (2 Bft) 95,74 %
15.07.2022 08:02 14,7 C 14,4 C 11,1 C 86 % 1023,5 hPa 0,0 l/m 0 min 0 min 72 W/m 6,4 km/h (2 Bft) 95,74 %
15.07.2022 08:04 14,8 C 15,0 C 11,1 C 86 % 1023,5 hPa 0,0 l/m 2 min 0 min 170 W/m 6,4 km/h (2 Bft) 95,74 %
15.07.2022 08:06 14,8 C 15,0 C 11,1 C 85 % 1023,5 hPa 0,0 l/m 2 min 0 min 232 W/m 9,7 km/h (2 Bft) 95,65 %
15.07.2022 08:08 14,8 C 15,0 C 11,1 C 85 % 1023,5 hPa 0,0 l/m 2 min 0 min 255 W/m 3,2 km/h (1 Bft) 93,88 %
15.07.2022 08:10 14,9 C 15,0 C 11,1 C 85 % 1023,5 hPa 0,0 l/m 2 min 0 min 309 W/m 3,2 km/h (1 Bft) 95,65 %
15.07.2022 08:12 14,9 C 15,6 C 11,7 C 85 % 1023,5 hPa 0,0 l/m 2 min 0 min 322 W/m 3,2 km/h (1 Bft) 97,87 %
15.07.2022 08:14 15,1 C 15,6 C 11,7 C 85 % 1023,5 hPa 0,0 l/m 2 min 0 min 329 W/m 6,4 km/h (2 Bft) 97,87 %
15.07.2022 08:16 15,1 C 16,1 C 11,7 C 85 % 1023,5 hPa 0,0 l/m 2 min 0 min 336 W/m 3,2 km/h (1 Bft) 97,87 %
15.07.2022 08:18 15,2 C 16,7 C 11,7 C 85 % 1023,5 hPa 0,0 l/m 2 min 0 min 318 W/m 3,2 km/h (1 Bft) 97,87 %
15.07.2022 08:20 15,3 C 17,2 C 11,7 C 85 % 1023,5 hPa 0,0 l/m 2 min 0 min 249 W/m 6,4 km/h (2 Bft) 97,87 %
15.07.2022 08:22 15,4 C 17,8 C 11,7 C 85 % 1023,5 hPa 0,0 l/m 2 min 0 min 322 W/m 6,4 km/h (2 Bft) 97,83 %
15.07.2022 08:24 15,4 C 18,3 C 11,7 C 84 % 1023,5 hPa 0,0 l/m 2 min 0 min 311 W/m 3,2 km/h (1 Bft) 97,87 %
15.07.2022 08:26 15,6 C 18,3 C 11,7 C 83 % 1023,5 hPa 0,0 l/m 2 min 0 min 344 W/m 6,4 km/h (2 Bft) 97,87 %
15.07.2022 08:28 15,7 C 18,3 C 12,2 C 83 % 1023,5 hPa 0,0 l/m 2 min 0 min 365 W/m 6,4 km/h (2 Bft) 100,00 %
15.07.2022 08:30 15,9 C 18,9 C 12,2 C 82 % 1023,5 hPa 0,0 l/m 2 min 0 min 355 W/m 6,4 km/h (2 Bft) 100,00 %
15.07.2022 08:32 16,0 C 18,9 C 12,2 C 82 % 1023,5 hPa 0,0 l/m 2 min 0 min 383 W/m 6,4 km/h (2 Bft) 100,00 %
15.07.2022 08:34 16,1 C 18,9 C 12,8 C 82 % 1023,5 hPa 0,0 l/m 2 min 0 min 385 W/m 3,2 km/h (1 Bft) 100,00 %
15.07.2022 08:36 16,3 C 19,4 C 12,8 C 80 % 1023,4 hPa 0,0 l/m 2 min 0 min 389 W/m 9,7 km/h (2 Bft) 97,87 %
15.07.2022 08:38 16,4 C 20,0 C 13,3 C 79 % 1023,5 hPa 0,0 l/m 2 min 0 min 406 W/m 9,7 km/h (2 Bft) 100,00 %
15.07.2022 08:40 16,6 C 20,6 C 13,9 C 79 % 1023,5 hPa 0,0 l/m 2 min 0 min 416 W/m 3,2 km/h (1 Bft) 100,00 %
15.07.2022 08:42 16,7 C 20,6 C 14,4 C 79 % 1023,4 hPa 0,0 l/m 2 min 0 min 410 W/m 3,2 km/h (1 Bft) 100,00 %
15.07.2022 08:44 16,8 C 20,6 C 14,4 C 78 % 1023,5 hPa 0,0 l/m 2 min 0 min 422 W/m 6,4 km/h (2 Bft) 100,00 %
15.07.2022 08:46 17,0 C 21,1 C 15,0 C 78 % 1023,5 hPa 0,0 l/m 2 min 0 min 426 W/m 9,7 km/h (2 Bft) 100,00 %
15.07.2022 08:48 17,2 C 21,1 C 15,0 C 77 % 1023,6 hPa 0,0 l/m 2 min 0 min 367 W/m 12,9 km/h (3 Bft) 100,00 %
15.07.2022 08:50 17,3 C 21,1 C 15,0 C 76 % 1023,5 hPa 0,0 l/m 2 min 0 min 391 W/m 12,9 km/h (3 Bft) 100,00 %
15.07.2022 08:52 17,4 C 21,1 C 15,6 C 75 % 1023,6 hPa 0,0 l/m 2 min 0 min 441 W/m 12,9 km/h (3 Bft) 97,87 %
15.07.2022 08:54 17,4 C 21,7 C 15,6 C 75 % 1023,5 hPa 0,0 l/m 2 min 0 min 456 W/m 16,1 km/h (3 Bft) 100,00 %
15.07.2022 08:56 17,6 C 22,2 C 15,6 C 75 % 1023,5 hPa 0,0 l/m 2 min 0 min 454 W/m 9,7 km/h (2 Bft) 97,87 %
15.07.2022 08:58 17,7 C 22,2 C 16,1 C 75 % 1023,5 hPa 0,0 l/m 2 min 0 min 460 W/m 6,4 km/h (2 Bft) 97,83 %
15.07.2022 09:00 17,8 C 22,2 C 16,1 C 74 % 1023,5 hPa 0,0 l/m 2 min 0 min 464 W/m 6,4 km/h (2 Bft) 97,87 %
15.07.2022 09:02 17,8 C 21,7 C 15,6 C 73 % 1023,5 hPa 0,0 l/m 2 min 0 min 425 W/m 6,4 km/h (2 Bft) 97,92 %
15.07.2022 09:04 17,9 C 21,7 C 16,1 C 74 % 1023,6 hPa 0,0 l/m 2 min 0 min 360 W/m 9,7 km/h (2 Bft) 97,87 %
15.07.2022 09:06 17,9 C 21,7 C 16,1 C 73 % 1023,5 hPa 0,0 l/m 2 min 0 min 334 W/m 12,9 km/h (3 Bft) 97,87 %
15.07.2022 09:08 17,9 C 22,2 C 16,1 C 73 % 1023,6 hPa 0,0 l/m 2 min 0 min 440 W/m 12,9 km/h (3 Bft) 95,65 %
15.07.2022 09:10 17,9 C 20,6 C 15,6 C 73 % 1023,6 hPa 0,0 l/m 2 min 0 min 361 W/m 9,7 km/h (2 Bft) 97,87 %
15.07.2022 09:12 17,9 C 20,0 C 15,0 C 73 % 1023,6 hPa 0,0 l/m 0 min 0 min 105 W/m 9,7 km/h (2 Bft) 97,87 %
15.07.2022 09:14 17,8 C 20,6 C 15,6 C 72 % 1023,5 hPa 0,0 l/m 2 min 0 min 360 W/m 6,4 km/h (2 Bft) 97,87 %
15.07.2022 09:16 17,8 C 21,7 C 15,6 C 73 % 1023,6 hPa 0,0 l/m 2 min 0 min 520 W/m 12,9 km/h (3 Bft) 97,87 %
15.07.2022 09:18 17,9 C 22,2 C 16,1 C 73 % 1023,6 hPa 0,0 l/m 2 min 0 min 532 W/m 12,9 km/h (3 Bft) 97,87 %
15.07.2022 09:20 18,0 C 23,3 C 16,1 C 73 % 1023,6 hPa 0,0 l/m 2 min 0 min 544 W/m 9,7 km/h (2 Bft) 97,87 %
15.07.2022 09:22 18,1 C 23,9 C 16,1 C 73 % 1023,6 hPa 0,0 l/m 2 min 0 min 523 W/m 9,7 km/h (2 Bft) 97,83 %
15.07.2022 09:24 18,2 C 22,2 C 16,1 C 72 % 1023,6 hPa 0,0 l/m 2 min 0 min 315 W/m 12,9 km/h (3 Bft) 97,87 %
15.07.2022 09:26 18,1 C 22,2 C 16,1 C 71 % 1023,6 hPa 0,0 l/m 0 min 0 min 100 W/m 12,9 km/h (3 Bft) 95,74 %
15.07.2022 09:28 18,1 C 22,8 C 16,7 C 71 % 1023,7 hPa 0,0 l/m 2 min 0 min 471 W/m 9,7 km/h (2 Bft) 97,87 %
15.07.2022 09:30 18,2 C 23,9 C 16,7 C 72 % 1023,7 hPa 0,0 l/m 2 min 0 min 577 W/m 9,7 km/h (2 Bft) 97,87 %
15.07.2022 09:32 18,2 C 22,2 C 16,1 C 72 % 1023,7 hPa 0,0 l/m 0 min 0 min 91 W/m 12,9 km/h (3 Bft) 97,56 %
15.07.2022 09:34 18,2 C 21,1 C 15,6 C 70 % 1023,6 hPa 0,0 l/m 0 min 0 min 107 W/m 16,1 km/h (3 Bft) 95,65 %
15.07.2022 09:36 18,1 C 19,4 C 15,0 C 70 % 1023,6 hPa 0,0 l/m 0 min 0 min 115 W/m 12,9 km/h (3 Bft) 97,87 %
15.07.2022 09:38 18,1 C 18,9 C 15,0 C 70 % 1023,6 hPa 0,0 l/m 0 min 0 min 108 W/m 9,7 km/h (2 Bft) 97,87 %
15.07.2022 09:40 17,9 C 18,9 C 14,4 C 71 % 1023,6 hPa 0,0 l/m 0 min 0 min 134 W/m 6,4 km/h (2 Bft) 97,87 %
15.07.2022 09:42 17,8 C 17,8 C 14,4 C 71 % 1023,6 hPa 0,0 l/m 0 min 0 min 122 W/m 6,4 km/h (2 Bft) 97,87 %
15.07.2022 09:44 17,7 C 17,2 C 13,9 C 71 % 1023,6 hPa 0,0 l/m 0 min 0 min 99 W/m 6,4 km/h (2 Bft) 97,87 %
15.07.2022 09:46 17,6 C 17,2 C 13,9 C 72 % 1023,6 hPa 0,0 l/m 0 min 0 min 121 W/m 3,2 km/h (1 Bft) 95,65 %
15.07.2022 09:48 17,6 C 18,3 C 14,4 C 72 % 1023,6 hPa 0,0 l/m 0 min 0 min 185 W/m 6,4 km/h (2 Bft) 97,87 %
15.07.2022 09:50 17,6 C 20,0 C 15,0 C 73 % 1023,6 hPa 0,0 l/m 2 min 0 min 687 W/m 9,7 km/h (2 Bft) 95,74 %
15.07.2022 09:52 17,7 C 21,1 C 15,6 C 73 % 1023,6 hPa 0,0 l/m 2 min 0 min 690 W/m 9,7 km/h (2 Bft) 97,87 %
15.07.2022 09:54 17,8 C 21,7 C 16,7 C 72 % 1023,6 hPa 0,0 l/m 2 min 0 min 706 W/m 16,1 km/h (3 Bft) 97,87 %
15.07.2022 09:56 17,9 C 22,2 C 17,2 C 72 % 1023,6 hPa 0,0 l/m 2 min 0 min 723 W/m 6,4 km/h (2 Bft) 95,74 %
15.07.2022 09:58 18,2 C 22,8 C 17,2 C 72 % 1023,6 hPa 0,0 l/m 2 min 0 min 724 W/m 12,9 km/h (3 Bft) 97,83 %
15.07.2022 10:00 18,4 C 22,2 C 17,2 C 71 % 1023,6 hPa 0,0 l/m 2 min 0 min 675 W/m 6,4 km/h (2 Bft) 97,87 %
15.07.2022 10:02 18,4 C 20,6 C 16,1 C 70 % 1023,6 hPa 0,0 l/m 0 min 0 min 157 W/m 6,4 km/h (2 Bft) 97,92 %
15.07.2022 10:04 18,4 C 19,4 C 15,6 C 70 % 1023,6 hPa 0,0 l/m 0 min 0 min 143 W/m 9,7 km/h (2 Bft) 95,74 %
15.07.2022 10:06 18,3 C 20,6 C 16,7 C 71 % 1023,6 hPa 0,0 l/m 2 min 0 min 514 W/m 9,7 km/h (2 Bft) 97,83 %
15.07.2022 10:08 18,4 C 21,7 C 16,7 C 71 % 1023,6 hPa 0,0 l/m 2 min 0 min 760 W/m 3,2 km/h (1 Bft) 97,87 %
15.07.2022 10:10 18,6 C 21,7 C 16,7 C 70 % 1023,5 hPa 0,0 l/m 2 min 0 min 740 W/m 9,7 km/h (2 Bft) 97,87 %
15.07.2022 10:12 18,6 C 21,1 C 16,1 C 69 % 1023,5 hPa 0,0 l/m 0 min 0 min 176 W/m 6,4 km/h (2 Bft) 97,87 %
15.07.2022 10:14 18,7 C 20,6 C 16,1 C 68 % 1023,6 hPa 0,0 l/m 0 min 0 min 161 W/m 12,9 km/h (3 Bft) 97,87 %
15.07.2022 10:16 18,7 C 20,0 C 15,6 C 67 % 1023,6 hPa 0,0 l/m 0 min 0 min 169 W/m 12,9 km/h (3 Bft) 100,00 %
15.07.2022 10:18 18,6 C 20,0 C 15,6 C 67 % 1023,6 hPa 0,0 l/m 0 min 0 min 205 W/m 3,2 km/h (1 Bft) 100,00 %
15.07.2022 10:20 18,7 C 20,0 C 15,6 C 67 % 1023,6 hPa 0,0 l/m 0 min 0 min 221 W/m 6,4 km/h (2 Bft) 100,00 %
15.07.2022 10:22 18,7 C 20,0 C 15,6 C 65 % 1023,6 hPa 0,0 l/m 2 min 0 min 330 W/m 6,4 km/h (2 Bft) 100,00 %
15.07.2022 10:24 18,7 C 20,6 C 16,1 C 64 % 1023,6 hPa 0,0 l/m 2 min 0 min 538 W/m 6,4 km/h (2 Bft) 100,00 %
15.07.2022 10:26 18,8 C 21,7 C 16,7 C 65 % 1023,6 hPa 0,0 l/m 2 min 0 min 879 W/m 6,4 km/h (2 Bft) 100,00 %
15.07.2022 10:28 18,8 C 21,7 C 17,2 C 66 % 1023,7 hPa 0,0 l/m 2 min 0 min 864 W/m 12,9 km/h (3 Bft) 100,00 %
15.07.2022 10:30 18,9 C 21,1 C 17,2 C 64 % 1023,6 hPa 0,0 l/m 2 min 0 min 858 W/m 9,7 km/h (2 Bft) 100,00 %
15.07.2022 10:32 19,1 C 21,1 C 17,2 C 63 % 1023,6 hPa 0,0 l/m 2 min 0 min 843 W/m 6,4 km/h (2 Bft) 100,00 %
15.07.2022 10:34 19,1 C 20,6 C 16,7 C 64 % 1023,7 hPa 0,0 l/m 0 min 0 min 271 W/m 6,4 km/h (2 Bft) 97,87 %
15.07.2022 10:36 18,9 C 19,4 C 16,1 C 63 % 1023,6 hPa 0,0 l/m 0 min 0 min 154 W/m 16,1 km/h (3 Bft) 100,00 %
15.07.2022 10:38 18,8 C 18,9 C 15,6 C 63 % 1023,7 hPa 0,0 l/m 0 min 0 min 159 W/m 6,4 km/h (2 Bft) 100,00 %
15.07.2022 10:40 18,7 C 18,9 C 15,6 C 64 % 1023,7 hPa 0,0 l/m 0 min 0 min 172 W/m 6,4 km/h (2 Bft) 100,00 %
15.07.2022 10:42 18,6 C 18,3 C 15,6 C 65 % 1023,7 hPa 0,0 l/m 0 min 0 min 186 W/m 3,2 km/h (1 Bft) 100,00 %
15.07.2022 10:44 18,6 C 18,9 C 16,1 C 65 % 1023,6 hPa 0,0 l/m 0 min 0 min 250 W/m 6,4 km/h (2 Bft) 100,00 %
15.07.2022 10:46 18,6 C 18,9 C 16,7 C 65 % 1023,7 hPa 0,0 l/m 0 min 0 min 264 W/m 9,7 km/h (2 Bft) 100,00 %
15.07.2022 10:48 18,6 C 18,9 C 16,1 C 63 % 1023,7 hPa 0,0 l/m 0 min 0 min 219 W/m 12,9 km/h (3 Bft) 100,00 %
15.07.2022 10:50 18,5 C 18,9 C 16,1 C 63 % 1023,6 hPa 0,0 l/m 0 min 0 min 197 W/m 6,4 km/h (2 Bft) 100,00 %
15.07.2022 10:52 18,5 C 18,9 C 16,1 C 63 % 1023,6 hPa 0,0 l/m 0 min 0 min 192 W/m 6,4 km/h (2 Bft) 97,87 %
15.07.2022 10:54 18,5 C 18,9 C 15,6 C 63 % 1023,7 hPa 0,0 l/m 0 min 0 min 188 W/m 9,7 km/h (2 Bft) 100,00 %
15.07.2022 10:56 18,5 C 18,9 C 15,6 C 64 % 1023,7 hPa 0,0 l/m 0 min 0 min 194 W/m 9,7 km/h (2 Bft) 100,00 %
15.07.2022 10:58 18,5 C 18,9 C 15,6 C 64 % 1023,7 hPa 0,0 l/m 0 min 0 min 216 W/m 6,4 km/h (2 Bft) 97,87 %
15.07.2022 11:00 18,5 C 19,4 C 16,1 C 65 % 1023,7 hPa 0,0 l/m 2 min 0 min 693 W/m 16,1 km/h (3 Bft) 100,00 %
15.07.2022 11:02 18,6 C 20,6 C 16,1 C 64 % 1023,7 hPa 0,0 l/m 2 min 0 min 928 W/m 16,1 km/h (3 Bft) 100,00 %
15.07.2022 11:04 18,7 C 21,1 C 16,1 C 65 % 1023,7 hPa 0,0 l/m 2 min 0 min 919 W/m 6,4 km/h (2 Bft) 100,00 %
15.07.2022 11:06 18,8 C 21,1 C 16,1 C 65 % 1023,7 hPa 0,0 l/m 2 min 0 min 767 W/m 12,9 km/h (3 Bft) 100,00 %
15.07.2022 11:08 18,8 C 21,1 C 16,1 C 64 % 1023,7 hPa 0,0 l/m 2 min 0 min 611 W/m 9,7 km/h (2 Bft) 100,00 %
15.07.2022 11:10 18,9 C 21,1 C 16,1 C 63 % 1023,6 hPa 0,0 l/m 2 min 0 min 758 W/m 9,7 km/h (2 Bft) 100,00 %
15.07.2022 11:12 19,0 C 21,7 C 16,1 C 63 % 1023,6 hPa 0,0 l/m 2 min 0 min 916 W/m 6,4 km/h (2 Bft) 100,00 %
15.07.2022 11:14 19,1 C 22,2 C 16,7 C 64 % 1023,6 hPa 0,0 l/m 2 min 0 min 926 W/m 9,7 km/h (2 Bft) 100,00 %
15.07.2022 11:16 19,2 C 22,2 C 16,7 C 63 % 1023,5 hPa 0,0 l/m 2 min 0 min 964 W/m 6,4 km/h (2 Bft) 100,00 %
15.07.2022 11:18 19,4 C 22,8 C 16,7 C 63 % 1023,5 hPa 0,0 l/m 2 min 0 min 997 W/m 12,9 km/h (3 Bft) 100,00 %
15.07.2022 11:20 19,5 C 22,2 C 16,7 C 63 % 1023,6 hPa 0,0 l/m 2 min 0 min 740 W/m 9,7 km/h (2 Bft) 100,00 %
15.07.2022 11:22 19,5 C 22,2 C 16,7 C 63 % 1023,5 hPa 0,0 l/m 2 min 0 min 447 W/m 9,7 km/h (2 Bft) 97,87 %
15.07.2022 11:24 19,6 C 22,8 C 17,8 C 63 % 1023,5 hPa 0,0 l/m 2 min 0 min 728 W/m 12,9 km/h (3 Bft) 97,87 %
15.07.2022 11:26 19,7 C 22,8 C 18,3 C 61 % 1023,5 hPa 0,0 l/m 2 min 0 min 973 W/m 19,3 km/h (3 Bft) 100,00 %
15.07.2022 11:28 19,8 C 22,2 C 18,3 C 61 % 1023,4 hPa 0,0 l/m 2 min 0 min 585 W/m 12,9 km/h (3 Bft) 100,00 %
15.07.2022 11:30 19,9 C 21,7 C 18,3 C 60 % 1023,4 hPa 0,0 l/m 0 min 0 min 260 W/m 12,9 km/h (3 Bft) 97,83 %
15.07.2022 11:32 19,9 C 21,7 C 18,9 C 60 % 1023,4 hPa 0,0 l/m 0 min 0 min 298 W/m 12,9 km/h (3 Bft) 97,87 %
15.07.2022 11:34 19,9 C 21,7 C 18,3 C 58 % 1023,5 hPa 0,0 l/m 0 min 0 min 334 W/m 9,7 km/h (2 Bft) 97,87 %
15.07.2022 11:36 20,1 C 21,7 C 18,3 C 58 % 1023,5 hPa 0,0 l/m 0 min 0 min 357 W/m 6,4 km/h (2 Bft) 95,74 %
15.07.2022 11:38 20,1 C 22,2 C 18,9 C 59 % 1023,5 hPa 0,0 l/m 2 min 0 min 400 W/m 16,1 km/h (3 Bft) 97,87 %
15.07.2022 11:40 20,3 C 21,7 C 18,3 C 58 % 1023,5 hPa 0,0 l/m 2 min 0 min 457 W/m 9,7 km/h (2 Bft) 97,87 %
15.07.2022 11:42 20,3 C 21,1 C 17,8 C 57 % 1023,4 hPa 0,0 l/m 0 min 0 min 356 W/m 16,1 km/h (3 Bft) 95,65 %
15.07.2022 11:44 20,3 C 21,1 C 17,8 C 58 % 1023,5 hPa 0,0 l/m 0 min 0 min 278 W/m 9,7 km/h (2 Bft) 95,74 %
15.07.2022 11:46 20,2 C 20,6 C 17,2 C 58 % 1023,5 hPa 0,0 l/m 0 min 0 min 265 W/m 6,4 km/h (2 Bft) 95,74 %
15.07.2022 11:48 20,2 C 20,6 C 17,2 C 59 % 1023,4 hPa 0,0 l/m 0 min 0 min 274 W/m 6,4 km/h (2 Bft) 95,74 %
15.07.2022 11:50 20,3 C 21,1 C 17,2 C 59 % 1023,5 hPa 0,0 l/m 0 min 0 min 315 W/m 9,7 km/h (2 Bft) 91,49 %
15.07.2022 11:52 20,3 C 21,7 C 17,8 C 60 % 1023,5 hPa 0,0 l/m 2 min 0 min 526 W/m 12,9 km/h (3 Bft) 95,74 %
15.07.2022 11:54 20,4 C 22,2 C 18,9 C 59 % 1023,5 hPa 0,0 l/m 2 min 0 min 799 W/m 6,4 km/h (2 Bft) 95,65 %
15.07.2022 11:56 20,6 C 22,8 C 18,9 C 59 % 1023,5 hPa 0,0 l/m 2 min 0 min 801 W/m 12,9 km/h (3 Bft) 95,74 %
15.07.2022 11:58 20,7 C 22,8 C 18,9 C 59 % 1023,5 hPa 0,0 l/m 2 min 0 min 436 W/m 9,7 km/h (2 Bft) 91,49 %
15.07.2022 12:00 20,8 C 23,3 C 18,9 C 58 % 1023,5 hPa 0,0 l/m 2 min 0 min 436 W/m 6,4 km/h (2 Bft) 93,62 %
15.07.2022 12:02 20,8 C 23,3 C 18,9 C 58 % 1023,4 hPa 0,0 l/m 2 min 0 min 436 W/m 12,9 km/h (3 Bft) 95,74 %
15.07.2022 12:04 20,9 C 23,3 C 19,4 C 59 % 1023,5 hPa 0,0 l/m 2 min 0 min 930 W/m 19,3 km/h (3 Bft) 95,74 %
15.07.2022 12:07 21,0 C 22,8 C 18,9 C 57 % 1023,5 hPa 0,0 l/m 0 min 0 min 378 W/m 12,9 km/h (3 Bft) 95,74 %
15.07.2022 12:08 21,0 C 22,2 C 18,3 C 58 % 1023,5 hPa 0,0 l/m 1 min 0 min 668 W/m 12,9 km/h (3 Bft) 95,18 %
15.07.2022 12:10 20,9 C 21,7 C 18,3 C 57 % 1023,5 hPa 0,0 l/m 0 min 0 min 352 W/m 16,1 km/h (3 Bft) 93,88 %
15.07.2022 12:12 20,8 C 21,7 C 17,8 C 58 % 1023,4 hPa 0,0 l/m 0 min 0 min 342 W/m 9,7 km/h (2 Bft) 97,87 %
15.07.2022 12:14 20,7 C 21,1 C 17,8 C 58 % 1023,5 hPa 0,0 l/m 0 min 0 min 299 W/m 12,9 km/h (3 Bft) 97,87 %
15.07.2022 12:16 20,6 C 21,1 C 17,8 C 58 % 1023,5 hPa 0,0 l/m 0 min 0 min 289 W/m 12,9 km/h (3 Bft) 95,92 %
15.07.2022 12:18 20,6 C 20,6 C 17,2 C 59 % 1023,5 hPa 0,0 l/m 0 min 0 min 278 W/m 22,5 km/h (4 Bft) 95,65 %
15.07.2022 12:20 20,6 C 20,6 C 17,2 C 59 % 1023,5 hPa 0,0 l/m 0 min 0 min 282 W/m 16,1 km/h (3 Bft) 95,74 %
15.07.2022 12:22 20,5 C 20,6 C 17,2 C 58 % 1023,5 hPa 0,0 l/m 0 min 0 min 319 W/m 9,7 km/h (2 Bft) 97,87 %
15.07.2022 12:24 20,4 C 20,6 C 17,8 C 58 % 1023,5 hPa 0,0 l/m 0 min 0 min 380 W/m 16,1 km/h (3 Bft) 95,74 %
15.07.2022 12:26 20,4 C 20,6 C 17,2 C 58 % 1023,5 hPa 0,0 l/m 0 min 0 min 323 W/m 9,7 km/h (2 Bft) 97,87 %
15.07.2022 12:28 20,4 C 20,6 C 17,8 C 58 % 1023,4 hPa 0,0 l/m 0 min 0 min 390 W/m 6,4 km/h (2 Bft) 97,87 %
15.07.2022 12:30 20,4 C 21,1 C 18,9 C 58 % 1023,4 hPa 0,0 l/m 2 min 0 min 406 W/m 6,4 km/h (2 Bft) 97,83 %
15.07.2022 12:32 20,5 C 21,7 C 18,9 C 58 % 1023,4 hPa 0,0 l/m 2 min 0 min 548 W/m 9,7 km/h (2 Bft) 95,74 %
15.07.2022 12:34 20,6 C 22,2 C 20,6 C 57 % 1023,3 hPa 0,0 l/m 2 min 0 min 679 W/m 12,9 km/h (3 Bft) 97,87 %
15.07.2022 12:36 20,7 C 22,2 C 20,6 C 57 % 1023,3 hPa 0,0 l/m 2 min 0 min 650 W/m 12,9 km/h (3 Bft) 95,74 %
15.07.2022 12:38 20,8 C 22,8 C 20,6 C 57 % 1023,3 hPa 0,0 l/m 2 min 0 min 613 W/m 9,7 km/h (2 Bft) 97,87 %
15.07.2022 12:40 20,9 C 22,8 C 20,6 C 58 % 1023,4 hPa 0,0 l/m 2 min 0 min 548 W/m 22,5 km/h (4 Bft) 95,74 %
15.07.2022 12:42 21,1 C 22,8 C 20,0 C 57 % 1023,4 hPa 0,0 l/m 2 min 0 min 482 W/m 16,1 km/h (3 Bft) 95,65 %
15.07.2022 12:44 21,1 C 22,2 C 19,4 C 56 % 1023,4 hPa 0,0 l/m 2 min 0 min 429 W/m 16,1 km/h (3 Bft) 97,87 %
15.07.2022 12:46 21,1 C 22,2 C 18,9 C 57 % 1023,4 hPa 0,0 l/m 2 min 0 min 463 W/m 16,1 km/h (3 Bft) 95,74 %
15.07.2022 12:48 21,1 C 21,7 C 18,3 C 57 % 1023,4 hPa 0,0 l/m 2 min 0 min 461 W/m 16,1 km/h (3 Bft) 97,87 %
15.07.2022 12:50 21,1 C 22,2 C 18,9 C 57 % 1023,3 hPa 0,0 l/m 2 min 0 min 514 W/m 6,4 km/h (2 Bft) 97,87 %
15.07.2022 12:52 21,2 C 22,2 C 19,4 C 57 % 1023,3 hPa 0,0 l/m 2 min 0 min 600 W/m 12,9 km/h (3 Bft) 97,87 %
15.07.2022 12:54 21,2 C 22,8 C 19,4 C 56 % 1023,4 hPa 0,0 l/m 2 min 0 min 573 W/m 12,9 km/h (3 Bft) 97,83 %
15.07.2022 12:56 21,3 C 22,2 C 19,4 C 56 % 1023,3 hPa 0,0 l/m 2 min 0 min 546 W/m 16,1 km/h (3 Bft) 97,87 %
15.07.2022 12:58 21,3 C 21,7 C 18,3 C 56 % 1023,3 hPa 0,0 l/m 0 min 0 min 377 W/m 16,1 km/h (3 Bft) 97,87 %
15.07.2022 13:00 21,3 C 21,7 C 18,3 C 56 % 1023,3 hPa 0,0 l/m 0 min 0 min 347 W/m 9,7 km/h (2 Bft) 97,87 %
15.07.2022 13:02 21,2 C 21,1 C 17,8 C 56 % 1023,3 hPa 0,0 l/m 0 min 0 min 295 W/m 6,4 km/h (2 Bft) 95,74 %
15.07.2022 13:04 21,1 C 21,1 C 17,8 C 57 % 1023,1 hPa 0,0 l/m 0 min 0 min 265 W/m 6,4 km/h (2 Bft) 95,65 %
15.07.2022 13:06 21,1 C 21,7 C 17,8 C 57 % 1023,1 hPa 0,0 l/m 0 min 0 min 301 W/m 9,7 km/h (2 Bft) 97,87 %
15.07.2022 13:08 21,1 C 22,2 C 18,3 C 57 % 1023,1 hPa 0,0 l/m 2 min 0 min 987 W/m 9,7 km/h (2 Bft) 97,87 %
15.07.2022 13:10 21,2 C 22,8 C 18,3 C 56 % 1023,0 hPa 0,0 l/m 2 min 0 min 952 W/m 9,7 km/h (2 Bft) 97,87 %
15.07.2022 13:12 21,3 C 23,3 C 18,3 C 57 % 1023,0 hPa 0,0 l/m 2 min 0 min 943 W/m 9,7 km/h (2 Bft) 97,87 %
15.07.2022 13:14 21,5 C 23,3 C 18,3 C 56 % 1023,0 hPa 0,0 l/m 2 min 0 min 940 W/m 9,7 km/h (2 Bft) 97,87 %
15.07.2022 13:16 21,6 C 23,3 C 18,3 C 55 % 1023,0 hPa 0,0 l/m 2 min 0 min 939 W/m 19,3 km/h (3 Bft) 97,83 %
15.07.2022 13:18 21,7 C 23,3 C 18,3 C 56 % 1023,0 hPa 0,0 l/m 2 min 0 min 936 W/m 19,3 km/h (3 Bft) 97,87 %
15.07.2022 13:20 21,9 C 23,9 C 18,3 C 55 % 1023,0 hPa 0,0 l/m 2 min 0 min 942 W/m 12,9 km/h (3 Bft) 95,74 %
15.07.2022 13:22 22,0 C 23,9 C 18,3 C 54 % 1022,9 hPa 0,0 l/m 2 min 0 min 943 W/m 16,1 km/h (3 Bft) 97,87 %
15.07.2022 13:24 22,1 C 23,3 C 18,3 C 55 % 1022,9 hPa 0,0 l/m 2 min 0 min 944 W/m 16,1 km/h (3 Bft) 100,00 %
15.07.2022 13:26 22,1 C 23,3 C 18,3 C 55 % 1022,9 hPa 0,0 l/m 2 min 0 min 950 W/m 12,9 km/h (3 Bft) 97,87 %
15.07.2022 13:28 22,0 C 22,8 C 17,8 C 54 % 1022,9 hPa 0,0 l/m 2 min 0 min 965 W/m 9,7 km/h (2 Bft) 100,00 %
15.07.2022 13:30 21,9 C 23,3 C 17,8 C 54 % 1022,9 hPa 0,0 l/m 2 min 0 min 997 W/m 6,4 km/h (2 Bft) 100,00 %
15.07.2022 13:32 21,9 C 23,3 C 18,3 C 54 % 1022,9 hPa 0,0 l/m 2 min 0 min 1009 W/m 16,1 km/h (3 Bft) 100,00 %
15.07.2022 13:34 22,0 C 23,3 C 18,3 C 55 % 1022,9 hPa 0,0 l/m 2 min 0 min 1023 W/m 19,3 km/h (3 Bft) 100,00 %
15.07.2022 13:36 22,1 C 23,9 C 18,9 C 56 % 1022,9 hPa 0,0 l/m 2 min 0 min 1032 W/m 12,9 km/h (3 Bft) 100,00 %
15.07.2022 13:38 22,2 C 24,4 C 19,4 C 55 % 1022,8 hPa 0,0 l/m 2 min 0 min 1039 W/m 16,1 km/h (3 Bft) 100,00 %
15.07.2022 13:40 22,1 C 23,9 C 19,4 C 54 % 1022,8 hPa 0,0 l/m 2 min 0 min 1044 W/m 12,9 km/h (3 Bft) 100,00 %
15.07.2022 13:42 21,9 C 23,9 C 20,6 C 54 % 1022,8 hPa 0,0 l/m 2 min 0 min 1052 W/m 12,9 km/h (3 Bft) 100,00 %
15.07.2022 13:44 22,0 C 23,9 C 22,8 C 54 % 1022,8 hPa 0,0 l/m 2 min 0 min 1076 W/m 16,1 km/h (3 Bft) 100,00 %
15.07.2022 13:46 22,1 C 24,4 C 24,4 C 55 % 1022,7 hPa 0,0 l/m 2 min 0 min 1120 W/m 6,4 km/h (2 Bft) 100,00 %
15.07.2022 13:48 22,2 C 25,0 C 25,6 C 54 % 1022,8 hPa 0,0 l/m 2 min 0 min 1141 W/m 6,4 km/h (2 Bft) 100,00 %
15.07.2022 13:50 22,3 C 24,4 C 24,4 C 54 % 1022,8 hPa 0,0 l/m 2 min 0 min 944 W/m 19,3 km/h (3 Bft) 97,87 %
15.07.2022 13:52 22,3 C 23,3 C 22,8 C 54 % 1022,8 hPa 0,0 l/m 0 min 0 min 307 W/m 19,3 km/h (3 Bft) 97,83 %
15.07.2022 13:54 22,3 C 23,3 C 22,2 C 55 % 1022,8 hPa 0,0 l/m 0 min 0 min 326 W/m 6,4 km/h (2 Bft) 95,74 %
15.07.2022 13:56 22,2 C 22,8 C 20,6 C 54 % 1022,8 hPa 0,0 l/m 0 min 0 min 263 W/m 19,3 km/h (3 Bft) 100,00 %
15.07.2022 13:58 22,1 C 22,2 C 19,4 C 54 % 1022,8 hPa 0,0 l/m 0 min 0 min 274 W/m 16,1 km/h (3 Bft) 97,87 %
15.07.2022 14:00 21,9 C 22,2 C 19,4 C 55 % 1022,8 hPa 0,0 l/m 0 min 0 min 292 W/m 16,1 km/h (3 Bft) 95,74 %
15.07.2022 14:02 22,0 C 23,3 C 19,4 C 55 % 1022,8 hPa 0,0 l/m 2 min 0 min 562 W/m 9,7 km/h (2 Bft) 93,62 %
15.07.2022 14:04 21,9 C 23,3 C 19,4 C 55 % 1022,8 hPa 0,0 l/m 2 min 0 min 1157 W/m 9,7 km/h (2 Bft) 95,65 %
15.07.2022 14:06 22,0 C 22,8 C 18,9 C 55 % 1022,8 hPa 0,0 l/m 0 min 0 min 276 W/m 9,7 km/h (2 Bft) 95,74 %
15.07.2022 14:08 21,8 C 22,2 C 18,9 C 54 % 1022,8 hPa 0,0 l/m 0 min 0 min 272 W/m 6,4 km/h (2 Bft) 95,74 %
15.07.2022 14:10 21,8 C 22,8 C 18,3 C 54 % 1022,7 hPa 0,0 l/m 0 min 0 min 219 W/m 12,9 km/h (3 Bft) 95,74 %
15.07.2022 14:12 21,8 C 23,3 C 18,3 C 54 % 1022,8 hPa 0,0 l/m 2 min 0 min 704 W/m 19,3 km/h (3 Bft) 93,62 %
15.07.2022 14:14 21,8 C 23,9 C 18,3 C 54 % 1022,7 hPa 0,0 l/m 2 min 0 min 1085 W/m 22,5 km/h (4 Bft) 95,74 %
15.07.2022 14:16 21,9 C 23,9 C 18,3 C 54 % 1022,7 hPa 0,0 l/m 2 min 0 min 1085 W/m 9,7 km/h (2 Bft) 95,65 %
15.07.2022 14:18 21,9 C 23,3 C 18,3 C 54 % 1022,7 hPa 0,0 l/m 2 min 0 min 1085 W/m 9,7 km/h (2 Bft) 95,74 %
15.07.2022 14:20 21,9 C 23,3 C 18,3 C 54 % 1022,7 hPa 0,0 l/m 2 min 0 min 556 W/m 12,9 km/h (3 Bft) 93,62 %
15.07.2022 14:22 21,9 C 22,8 C 18,3 C 54 % 1022,7 hPa 0,0 l/m 0 min 0 min 317 W/m 9,7 km/h (2 Bft) 97,87 %
15.07.2022 14:24 21,8 C 22,2 C 18,3 C 54 % 1022,7 hPa 0,0 l/m 0 min 0 min 276 W/m 12,9 km/h (3 Bft) 97,87 %
15.07.2022 14:26 21,7 C 22,2 C 18,3 C 55 % 1022,7 hPa 0,0 l/m 0 min 0 min 254 W/m 19,3 km/h (3 Bft) 97,87 %
15.07.2022 14:28 21,7 C 21,7 C 17,8 C 53 % 1022,7 hPa 0,0 l/m 0 min 0 min 242 W/m 22,5 km/h (4 Bft) 97,83 %
15.07.2022 14:30 21,6 C 21,7 C 17,8 C 54 % 1022,7 hPa 0,0 l/m 0 min 0 min 246 W/m 16,1 km/h (3 Bft) 95,74 %
15.07.2022 14:32 21,6 C 21,7 C 17,8 C 55 % 1022,8 hPa 0,0 l/m 0 min 0 min 252 W/m 12,9 km/h (3 Bft) 97,87 %
15.07.2022 14:34 21,6 C 22,2 C 17,8 C 54 % 1022,8 hPa 0,0 l/m 0 min 0 min 262 W/m 12,9 km/h (3 Bft) 97,87 %
15.07.2022 14:36 21,6 C 22,8 C 17,8 C 54 % 1022,7 hPa 0,0 l/m 2 min 0 min 431 W/m 12,9 km/h (3 Bft) 97,87 %
15.07.2022 14:38 21,6 C 23,9 C 18,3 C 54 % 1022,7 hPa 0,0 l/m 2 min 0 min 1100 W/m 9,7 km/h (2 Bft) 97,87 %
15.07.2022 14:40 21,8 C 25,0 C 18,3 C 54 % 1022,7 hPa 0,0 l/m 2 min 0 min 1106 W/m 9,7 km/h (2 Bft) 95,65 %
15.07.2022 14:42 21,9 C 24,4 C 18,3 C 54 % 1022,7 hPa 0,0 l/m 2 min 0 min 566 W/m 6,4 km/h (2 Bft) 100,00 %
15.07.2022 14:44 22,1 C 23,9 C 18,3 C 54 % 1022,7 hPa 0,0 l/m 0 min 0 min 303 W/m 6,4 km/h (2 Bft) 100,00 %
15.07.2022 14:46 22,1 C 23,3 C 18,3 C 53 % 1022,7 hPa 0,0 l/m 0 min 0 min 262 W/m 6,4 km/h (2 Bft) 100,00 %
15.07.2022 14:48 22,0 C 22,8 C 18,3 C 53 % 1022,7 hPa 0,0 l/m 0 min 0 min 236 W/m 6,4 km/h (2 Bft) 100,00 %
15.07.2022 14:50 21,9 C 22,2 C 18,3 C 53 % 1022,7 hPa 0,0 l/m 0 min 0 min 219 W/m 9,7 km/h (2 Bft) 100,00 %
15.07.2022 14:52 21,7 C 21,7 C 17,8 C 53 % 1022,7 hPa 0,0 l/m 0 min 0 min 203 W/m 6,4 km/h (2 Bft) 97,83 %
15.07.2022 14:54 21,7 C 21,7 C 17,8 C 54 % 1022,6 hPa 0,0 l/m 0 min 0 min 199 W/m 3,2 km/h (1 Bft) 97,87 %
15.07.2022 14:56 21,6 C 21,1 C 17,8 C 55 % 1022,6 hPa 0,0 l/m 0 min 0 min 199 W/m 3,2 km/h (1 Bft) 100,00 %
15.07.2022 14:58 21,4 C 21,1 C 17,8 C 55 % 1022,6 hPa 0,0 l/m 0 min 0 min 202 W/m 6,4 km/h (2 Bft) 100,00 %
15.07.2022 15:00 21,4 C 21,7 C 17,8 C 56 % 1022,7 hPa 0,0 l/m 0 min 0 min 205 W/m 6,4 km/h (2 Bft) 100,00 %
15.07.2022 15:02 21,4 C 21,7 C 17,8 C 55 % 1022,6 hPa 0,0 l/m 0 min 0 min 243 W/m 6,4 km/h (2 Bft) 100,00 %
15.07.2022 15:04 21,3 C 22,2 C 17,8 C 55 % 1022,6 hPa 0,0 l/m 0 min 0 min 273 W/m 6,4 km/h (2 Bft) 100,00 %
15.07.2022 15:06 21,3 C 22,2 C 17,8 C 56 % 1022,7 hPa 0,0 l/m 0 min 0 min 275 W/m 6,4 km/h (2 Bft) 100,00 %
15.07.2022 15:08 21,4 C 22,2 C 17,8 C 56 % 1022,6 hPa 0,0 l/m 0 min 0 min 266 W/m 6,4 km/h (2 Bft) 100,00 %
15.07.2022 15:10 21,4 C 22,2 C 17,8 C 56 % 1022,6 hPa 0,0 l/m 0 min 0 min 229 W/m 6,4 km/h (2 Bft) 100,00 %
15.07.2022 15:12 21,3 C 22,2 C 17,8 C 56 % 1022,6 hPa 0,0 l/m 0 min 0 min 240 W/m 9,7 km/h (2 Bft) 100,00 %
15.07.2022 15:14 21,3 C 21,7 C 17,8 C 56 % 1022,6 hPa 0,0 l/m 0 min 0 min 267 W/m 9,7 km/h (2 Bft) 100,00 %
15.07.2022 15:16 21,4 C 22,8 C 17,8 C 56 % 1022,7 hPa 0,0 l/m 0 min 0 min 283 W/m 3,2 km/h (1 Bft) 100,00 %
15.07.2022 15:18 21,4 C 23,3 C 17,8 C 55 % 1022,7 hPa 0,0 l/m 2 min 0 min 794 W/m 6,4 km/h (2 Bft) 100,00 %
15.07.2022 15:20 21,5 C 24,4 C 17,8 C 55 % 1022,6 hPa 0,0 l/m 2 min 0 min 1051 W/m 6,4 km/h (2 Bft) 100,00 %
15.07.2022 15:22 21,7 C 25,0 C 18,3 C 55 % 1022,6 hPa 0,0 l/m 2 min 0 min 1060 W/m 6,4 km/h (2 Bft) 100,00 %
15.07.2022 15:24 21,9 C 26,1 C 18,3 C 55 % 1022,5 hPa 0,0 l/m 2 min 0 min 1044 W/m 6,4 km/h (2 Bft) 100,00 %
15.07.2022 15:26 22,3 C 26,7 C 18,9 C 56 % 1022,5 hPa 0,0 l/m 2 min 0 min 1016 W/m 16,1 km/h (3 Bft) 100,00 %
15.07.2022 15:28 22,4 C 26,7 C 18,9 C 54 % 1022,5 hPa 0,0 l/m 2 min 0 min 1004 W/m 12,9 km/h (3 Bft) 100,00 %
15.07.2022 15:30 22,7 C 27,2 C 19,4 C 54 % 1022,5 hPa 0,0 l/m 2 min 0 min 991 W/m 16,1 km/h (3 Bft) 100,00 %
15.07.2022 15:32 22,9 C 26,7 C 19,4 C 52 % 1022,5 hPa 0,0 l/m 2 min 0 min 994 W/m 16,1 km/h (3 Bft) 97,87 %
15.07.2022 15:34 23,1 C 26,7 C 19,4 C 52 % 1022,5 hPa 0,0 l/m 2 min 0 min 1029 W/m 25,7 km/h (4 Bft) 95,74 %
15.07.2022 15:36 23,3 C 27,2 C 20,0 C 51 % 1022,5 hPa 0,0 l/m 2 min 0 min 1073 W/m 12,9 km/h (3 Bft) 100,00 %
15.07.2022 15:38 23,4 C 26,7 C 19,4 C 50 % 1022,5 hPa 0,0 l/m 2 min 0 min 1062 W/m 9,7 km/h (2 Bft) 100,00 %
15.07.2022 15:40 23,4 C 25,6 C 19,4 C 50 % 1022,5 hPa 0,0 l/m 2 min 0 min 782 W/m 16,1 km/h (3 Bft) 100,00 %
15.07.2022 15:42 23,3 C 24,4 C 19,4 C 50 % 1022,5 hPa 0,0 l/m 2 min 0 min 549 W/m 9,7 km/h (2 Bft) 95,74 %
15.07.2022 15:44 23,2 C 23,9 C 18,9 C 51 % 1022,5 hPa 0,0 l/m 0 min 0 min 262 W/m 9,7 km/h (2 Bft) 100,00 %
15.07.2022 15:46 22,9 C 22,8 C 18,9 C 51 % 1022,5 hPa 0,0 l/m 0 min 0 min 239 W/m 9,7 km/h (2 Bft) 100,00 %
15.07.2022 15:48 22,7 C 22,8 C 18,9 C 52 % 1022,5 hPa 0,0 l/m 0 min 0 min 222 W/m 12,9 km/h (3 Bft) 100,00 %
15.07.2022 15:50 22,6 C 22,8 C 18,3 C 52 % 1022,5 hPa 0,0 l/m 0 min 0 min 220 W/m 12,9 km/h (3 Bft) 97,87 %
15.07.2022 15:52 22,4 C 22,2 C 18,3 C 52 % 1022,5 hPa 0,0 l/m 0 min 0 min 221 W/m 9,7 km/h (2 Bft) 97,83 %
15.07.2022 15:54 22,3 C 22,2 C 18,3 C 54 % 1022,5 hPa 0,0 l/m 0 min 0 min 232 W/m 9,7 km/h (2 Bft) 95,74 %
15.07.2022 15:56 22,3 C 22,8 C 18,3 C 54 % 1022,5 hPa 0,0 l/m 0 min 0 min 287 W/m 9,7 km/h (2 Bft) 93,62 %
15.07.2022 15:58 22,3 C 23,3 C 18,3 C 54 % 1022,5 hPa 0,0 l/m 0 min 0 min 265 W/m 6,4 km/h (2 Bft) 95,74 %
15.07.2022 16:00 22,3 C 24,4 C 18,3 C 54 % 1022,5 hPa 0,0 l/m 2 min 0 min 823 W/m 9,7 km/h (2 Bft) 95,74 %
15.07.2022 16:02 22,4 C 23,9 C 18,9 C 53 % 1022,5 hPa 0,0 l/m 2 min 0 min 1007 W/m 12,9 km/h (3 Bft) 95,74 %
15.07.2022 16:04 22,5 C 23,9 C 18,9 C 53 % 1022,5 hPa 0,0 l/m 2 min 0 min 593 W/m 19,3 km/h (3 Bft) 93,48 %
15.07.2022 16:06 22,5 C 25,0 C 18,9 C 53 % 1022,5 hPa 0,0 l/m 2 min 0 min 552 W/m 12,9 km/h (3 Bft) 95,74 %
15.07.2022 16:08 22,7 C 26,1 C 19,4 C 54 % 1022,5 hPa 0,0 l/m 2 min 0 min 964 W/m 6,4 km/h (2 Bft) 95,74 %
15.07.2022 16:10 22,8 C 27,2 C 19,4 C 54 % 1022,5 hPa 0,0 l/m 2 min 0 min 955 W/m 12,9 km/h (3 Bft) 95,74 %
15.07.2022 16:12 23,0 C 27,2 C 19,4 C 52 % 1022,5 hPa 0,0 l/m 2 min 0 min 948 W/m 16,1 km/h (3 Bft) 95,74 %
15.07.2022 16:14 23,1 C 27,2 C 19,4 C 51 % 1022,4 hPa 0,0 l/m 2 min 0 min 955 W/m 12,9 km/h (3 Bft) 95,74 %
15.07.2022 16:16 23,2 C 27,2 C 19,4 C 52 % 1022,4 hPa 0,0 l/m 2 min 0 min 956 W/m 12,9 km/h (3 Bft) 95,65 %
15.07.2022 16:18 23,3 C 27,8 C 20,0 C 52 % 1022,4 hPa 0,0 l/m 2 min 0 min 952 W/m 12,9 km/h (3 Bft) 95,74 %
15.07.2022 16:20 23,5 C 27,8 C 20,0 C 51 % 1022,3 hPa 0,0 l/m 2 min 0 min 950 W/m 12,9 km/h (3 Bft) 93,62 %
15.07.2022 16:22 23,6 C 28,3 C 20,0 C 50 % 1022,3 hPa 0,0 l/m 2 min 0 min 957 W/m 9,7 km/h (2 Bft) 95,74 %
15.07.2022 16:24 23,7 C 27,2 C 20,0 C 50 % 1022,2 hPa 0,0 l/m 2 min 0 min 974 W/m 16,1 km/h (3 Bft) 95,74 %
15.07.2022 16:26 23,8 C 27,2 C 20,0 C 50 % 1022,2 hPa 0,0 l/m 2 min 0 min 977 W/m 16,1 km/h (3 Bft) 97,87 %
15.07.2022 16:28 23,7 C 25,6 C 20,0 C 50 % 1022,1 hPa 0,0 l/m 2 min 0 min 539 W/m 12,9 km/h (3 Bft) 100,00 %
15.07.2022 16:30 23,6 C 25,0 C 20,0 C 50 % 1022,2 hPa 0,0 l/m 0 min 0 min 319 W/m 12,9 km/h (3 Bft) 97,87 %
15.07.2022 16:32 23,5 C 25,0 C 20,0 C 51 % 1022,2 hPa 0,0 l/m 2 min 0 min 683 W/m 12,9 km/h (3 Bft) 95,74 %
15.07.2022 16:34 23,3 C 24,4 C 19,4 C 51 % 1022,3 hPa 0,0 l/m 0 min 0 min 296 W/m 12,9 km/h (3 Bft) 95,74 %
15.07.2022 16:36 23,3 C 23,9 C 19,4 C 51 % 1022,3 hPa 0,0 l/m 0 min 0 min 247 W/m 12,9 km/h (3 Bft) 93,62 %
15.07.2022 16:38 23,2 C 22,8 C 18,9 C 51 % 1022,2 hPa 0,0 l/m 0 min 0 min 218 W/m 16,1 km/h (3 Bft) 95,74 %
15.07.2022 16:40 22,9 C 22,8 C 18,9 C 52 % 1022,2 hPa 0,0 l/m 0 min 0 min 212 W/m 9,7 km/h (2 Bft) 93,48 %
15.07.2022 16:42 22,8 C 22,2 C 18,9 C 52 % 1022,3 hPa 0,0 l/m 0 min 0 min 202 W/m 9,7 km/h (2 Bft) 95,74 %
15.07.2022 16:44 22,7 C 22,2 C 18,9 C 52 % 1022,2 hPa 0,0 l/m 0 min 0 min 192 W/m 9,7 km/h (2 Bft) 95,74 %
15.07.2022 16:46 22,6 C 22,2 C 18,3 C 53 % 1022,2 hPa 0,0 l/m 0 min 0 min 180 W/m 9,7 km/h (2 Bft) 95,74 %
15.07.2022 16:48 22,5 C 22,2 C 18,3 C 53 % 1022,2 hPa 0,0 l/m 0 min 0 min 174 W/m 6,4 km/h (2 Bft) 95,74 %
15.07.2022 16:50 22,4 C 22,2 C 18,3 C 53 % 1022,2 hPa 0,0 l/m 0 min 0 min 168 W/m 12,9 km/h (3 Bft) 93,48 %
15.07.2022 16:52 22,3 C 22,2 C 18,3 C 53 % 1022,2 hPa 0,0 l/m 0 min 0 min 167 W/m 12,9 km/h (3 Bft) 97,87 %
15.07.2022 16:54 22,3 C 22,2 C 18,3 C 53 % 1022,2 hPa 0,0 l/m 0 min 0 min 181 W/m 9,7 km/h (2 Bft) 97,87 %
15.07.2022 16:56 22,3 C 22,2 C 18,3 C 53 % 1022,3 hPa 0,0 l/m 0 min 0 min 216 W/m 9,7 km/h (2 Bft) 97,87 %
15.07.2022 16:58 22,2 C 22,2 C 18,3 C 54 % 1022,2 hPa 0,0 l/m 0 min 0 min 234 W/m 12,9 km/h (3 Bft) 95,74 %
15.07.2022 17:00 22,2 C 23,3 C 18,3 C 53 % 1022,3 hPa 0,0 l/m 0 min 0 min 303 W/m 9,7 km/h (2 Bft) 97,87 %
15.07.2022 17:02 22,2 C 23,9 C 18,3 C 53 % 1022,3 hPa 0,0 l/m 2 min 0 min 400 W/m 6,4 km/h (2 Bft) 97,87 %
15.07.2022 17:04 22,2 C 26,1 C 18,9 C 53 % 1022,3 hPa 0,0 l/m 2 min 0 min 539 W/m 6,4 km/h (2 Bft) 97,83 %
15.07.2022 17:06 22,4 C 27,2 C 18,9 C 54 % 1022,3 hPa 0,0 l/m 2 min 0 min 858 W/m 6,4 km/h (2 Bft) 97,87 %
15.07.2022 17:08 22,6 C 27,2 C 18,9 C 53 % 1022,2 hPa 0,0 l/m 2 min 0 min 867 W/m 6,4 km/h (2 Bft) 97,87 %
15.07.2022 17:10 22,6 C 26,7 C 18,9 C 52 % 1022,2 hPa 0,0 l/m 2 min 0 min 480 W/m 12,9 km/h (3 Bft) 95,74 %
15.07.2022 17:12 22,7 C 26,7 C 18,9 C 52 % 1022,2 hPa 0,0 l/m 2 min 0 min 532 W/m 16,1 km/h (3 Bft) 95,74 %
15.07.2022 17:14 22,8 C 27,8 C 19,4 C 52 % 1022,2 hPa 0,0 l/m 2 min 0 min 743 W/m 9,7 km/h (2 Bft) 100,00 %
15.07.2022 17:16 22,9 C 28,9 C 19,4 C 52 % 1022,1 hPa 0,0 l/m 2 min 0 min 727 W/m 6,4 km/h (2 Bft) 100,00 %
15.07.2022 17:18 23,1 C 29,4 C 19,4 C 53 % 1022,1 hPa 0,0 l/m 2 min 0 min 721 W/m 12,9 km/h (3 Bft) 100,00 %
15.07.2022 17:20 23,1 C 28,3 C 19,4 C 50 % 1022,1 hPa 0,0 l/m 2 min 0 min 721 W/m 12,9 km/h (3 Bft) 100,00 %
15.07.2022 17:22 23,0 C 27,2 C 18,9 C 50 % 1022,1 hPa 0,0 l/m 2 min 0 min 733 W/m 19,3 km/h (3 Bft) 100,00 %
15.07.2022 17:24 23,0 C 26,1 C 19,4 C 51 % 1022,1 hPa 0,0 l/m 2 min 0 min 389 W/m 19,3 km/h (3 Bft) 100,00 %
15.07.2022 17:26 23,1 C 25,6 C 19,4 C 51 % 1022,0 hPa 0,0 l/m 2 min 0 min 300 W/m 12,9 km/h (3 Bft) 100,00 %
15.07.2022 17:28 23,1 C 25,6 C 19,4 C 49 % 1022,0 hPa 0,0 l/m 2 min 0 min 475 W/m 12,9 km/h (3 Bft) 100,00 %
15.07.2022 17:30 23,0 C 25,0 C 19,4 C 50 % 1022,0 hPa 0,0 l/m 2 min 0 min 476 W/m 16,1 km/h (3 Bft) 100,00 %
15.07.2022 17:32 22,9 C 25,0 C 18,9 C 50 % 1022,1 hPa 0,0 l/m 2 min 0 min 336 W/m 12,9 km/h (3 Bft) 100,00 %
15.07.2022 17:34 22,9 C 25,0 C 18,9 C 50 % 1022,0 hPa 0,0 l/m 2 min 0 min 348 W/m 12,9 km/h (3 Bft) 100,00 %
15.07.2022 17:36 22,9 C 25,0 C 19,4 C 50 % 1022,0 hPa 0,0 l/m 2 min 0 min 338 W/m 9,7 km/h (2 Bft) 100,00 %
15.07.2022 17:38 23,0 C 24,4 C 19,4 C 50 % 1022,0 hPa 0,0 l/m 2 min 0 min 379 W/m 9,7 km/h (2 Bft) 100,00 %
15.07.2022 17:40 23,0 C 25,0 C 18,9 C 51 % 1022,0 hPa 0,0 l/m 2 min 0 min 359 W/m 9,7 km/h (2 Bft) 100,00 %
15.07.2022 17:42 23,1 C 26,7 C 19,4 C 51 % 1022,0 hPa 0,0 l/m 2 min 0 min 693 W/m 19,3 km/h (3 Bft) 100,00 %
15.07.2022 17:44 23,1 C 27,8 C 20,0 C 50 % 1022,0 hPa 0,0 l/m 2 min 0 min 673 W/m 16,1 km/h (3 Bft) 97,87 %
15.07.2022 17:46 23,2 C 28,3 C 20,0 C 50 % 1021,9 hPa 0,0 l/m 2 min 0 min 661 W/m 12,9 km/h (3 Bft) 100,00 %
15.07.2022 17:48 23,3 C 28,3 C 20,0 C 50 % 1021,9 hPa 0,0 l/m 2 min 0 min 650 W/m 9,7 km/h (2 Bft) 100,00 %
15.07.2022 17:50 23,3 C 27,8 C 20,0 C 50 % 1022,0 hPa 0,0 l/m 2 min 0 min 640 W/m 12,9 km/h (3 Bft) 100,00 %
15.07.2022 17:52 23,4 C 28,9 C 20,0 C 50 % 1022,0 hPa 0,0 l/m 2 min 0 min 657 W/m 9,7 km/h (2 Bft) 97,87 %
15.07.2022 17:54 23,4 C 27,8 C 20,0 C 50 % 1021,9 hPa 0,0 l/m 2 min 0 min 639 W/m 12,9 km/h (3 Bft) 97,87 %
15.07.2022 17:56 23,4 C 27,2 C 20,0 C 50 % 1022,0 hPa 0,0 l/m 2 min 0 min 346 W/m 16,1 km/h (3 Bft) 97,87 %
15.07.2022 17:58 23,5 C 27,8 C 20,0 C 51 % 1021,9 hPa 0,0 l/m 2 min 0 min 383 W/m 12,9 km/h (3 Bft) 97,87 %
15.07.2022 18:00 23,6 C 27,8 C 20,0 C 51 % 1021,9 hPa 0,0 l/m 2 min 0 min 492 W/m 9,7 km/h (2 Bft) 97,87 %
15.07.2022 18:02 23,7 C 28,3 C 20,0 C 50 % 1021,9 hPa 0,0 l/m 2 min 0 min 643 W/m 9,7 km/h (2 Bft) 95,65 %
15.07.2022 18:04 23,7 C 27,8 C 20,6 C 51 % 1021,9 hPa 0,0 l/m 2 min 0 min 652 W/m 22,5 km/h (4 Bft) 97,87 %
15.07.2022 18:07 23,8 C 27,8 C 20,6 C 50 % 1021,8 hPa 0,0 l/m 3 min 0 min 622 W/m 16,1 km/h (3 Bft) 97,87 %
15.07.2022 18:08 23,8 C 27,8 C 20,6 C 50 % 1021,8 hPa 0,0 l/m 1 min 0 min 641 W/m 16,1 km/h (3 Bft) 98,00 %
15.07.2022 18:10 23,8 C 28,3 C 20,6 C 50 % 1021,8 hPa 0,0 l/m 2 min 0 min 607 W/m 16,1 km/h (3 Bft) 97,87 %
15.07.2022 18:12 23,9 C 29,4 C 20,6 C 50 % 1021,8 hPa 0,0 l/m 2 min 0 min 581 W/m 9,7 km/h (2 Bft) 95,74 %
15.07.2022 18:14 23,9 C 28,3 C 20,0 C 50 % 1021,8 hPa 0,0 l/m 2 min 0 min 551 W/m 12,9 km/h (3 Bft) 97,87 %
15.07.2022 18:16 23,9 C 28,9 C 20,0 C 50 % 1021,7 hPa 0,0 l/m 2 min 0 min 539 W/m 16,1 km/h (3 Bft) 97,83 %
15.07.2022 18:18 23,9 C 27,8 C 20,0 C 50 % 1021,7 hPa 0,0 l/m 2 min 0 min 536 W/m 6,4 km/h (2 Bft) 97,87 %
15.07.2022 18:20 23,8 C 27,2 C 20,0 C 50 % 1021,7 hPa 0,0 l/m 2 min 0 min 453 W/m 12,9 km/h (3 Bft) 97,87 %
15.07.2022 18:22 23,7 C 25,6 C 19,4 C 50 % 1021,7 hPa 0,0 l/m 0 min 0 min 197 W/m 12,9 km/h (3 Bft) 97,87 %
15.07.2022 18:24 23,6 C 26,1 C 19,4 C 50 % 1021,8 hPa 0,0 l/m 0 min 0 min 153 W/m 16,1 km/h (3 Bft) 97,87 %
15.07.2022 18:26 23,5 C 26,1 C 19,4 C 50 % 1021,8 hPa 0,0 l/m 0 min 0 min 153 W/m 12,9 km/h (3 Bft) 97,87 %
15.07.2022 18:28 23,5 C 26,1 C 19,4 C 50 % 1021,7 hPa 0,0 l/m 0 min 0 min 153 W/m 9,7 km/h (2 Bft) 97,83 %
15.07.2022 18:30 23,4 C 26,7 C 19,4 C 50 % 1021,7 hPa 0,0 l/m 2 min 0 min 469 W/m 9,7 km/h (2 Bft) 100,00 %
15.07.2022 18:32 23,3 C 27,8 C 19,4 C 50 % 1021,6 hPa 0,0 l/m 2 min 0 min 469 W/m 9,7 km/h (2 Bft) 100,00 %
15.07.2022 18:34 23,3 C 27,8 C 19,4 C 50 % 1021,6 hPa 0,0 l/m 2 min 0 min 462 W/m 9,7 km/h (2 Bft) 100,00 %
15.07.2022 18:36 23,3 C 28,3 C 19,4 C 50 % 1021,6 hPa 0,0 l/m 2 min 0 min 449 W/m 3,2 km/h (1 Bft) 100,00 %
15.07.2022 18:38 23,3 C 28,3 C 19,4 C 50 % 1021,5 hPa 0,0 l/m 2 min 0 min 443 W/m 9,7 km/h (2 Bft) 97,87 %
15.07.2022 18:40 23,4 C 26,7 C 20,0 C 52 % 1021,6 hPa 0,0 l/m 0 min 0 min 119 W/m 12,9 km/h (3 Bft) 100,00 %
15.07.2022 18:42 23,3 C 25,0 C 19,4 C 51 % 1021,6 hPa 0,0 l/m 0 min 0 min 70 W/m 12,9 km/h (3 Bft) 97,87 %
15.07.2022 18:44 23,2 C 23,9 C 18,9 C 51 % 1021,6 hPa 0,0 l/m 0 min 0 min 72 W/m 6,4 km/h (2 Bft) 100,00 %
15.07.2022 18:46 23,1 C 25,0 C 18,9 C 52 % 1021,6 hPa 0,0 l/m 0 min 0 min 84 W/m 6,4 km/h (2 Bft) 100,00 %
15.07.2022 18:48 23,1 C 25,0 C 18,9 C 52 % 1021,5 hPa 0,0 l/m 2 min 0 min 360 W/m 3,2 km/h (1 Bft) 97,87 %
15.07.2022 18:50 23,1 C 26,1 C 18,9 C 52 % 1021,5 hPa 0,0 l/m 0 min 0 min 194 W/m 3,2 km/h (1 Bft) 100,00 %
15.07.2022 18:52 23,1 C 26,1 C 18,9 C 54 % 1021,6 hPa 0,0 l/m 2 min 0 min 371 W/m 6,4 km/h (2 Bft) 100,00 %
15.07.2022 18:54 23,1 C 26,7 C 19,4 C 51 % 1021,5 hPa 0,0 l/m 2 min 0 min 414 W/m 12,9 km/h (3 Bft) 100,00 %
15.07.2022 18:56 23,1 C 26,7 C 18,9 C 51 % 1021,5 hPa 0,0 l/m 2 min 0 min 408 W/m 9,7 km/h (2 Bft) 97,87 %
15.07.2022 18:58 23,1 C 27,8 C 19,4 C 52 % 1021,5 hPa 0,0 l/m 2 min 0 min 390 W/m 6,4 km/h (2 Bft) 100,00 %
15.07.2022 19:00 23,1 C 27,8 C 19,4 C 51 % 1021,5 hPa 0,0 l/m 2 min 0 min 373 W/m 3,2 km/h (1 Bft) 100,00 %
15.07.2022 19:02 23,2 C 28,3 C 19,4 C 52 % 1021,5 hPa 0,0 l/m 2 min 0 min 313 W/m 6,4 km/h (2 Bft) 97,87 %
15.07.2022 19:04 23,2 C 28,3 C 19,4 C 52 % 1021,5 hPa 0,0 l/m 2 min 0 min 349 W/m 6,4 km/h (2 Bft) 95,65 %
15.07.2022 19:06 23,2 C 27,8 C 19,4 C 51 % 1021,4 hPa 0,0 l/m 2 min 0 min 352 W/m 3,2 km/h (1 Bft) 97,87 %
15.07.2022 19:08 23,3 C 27,2 C 19,4 C 51 % 1021,5 hPa 0,0 l/m 2 min 0 min 347 W/m 9,7 km/h (2 Bft) 97,87 %
15.07.2022 19:10 23,3 C 27,2 C 19,4 C 51 % 1021,5 hPa 0,0 l/m 2 min 0 min 334 W/m 9,7 km/h (2 Bft) 95,74 %
15.07.2022 19:12 23,3 C 26,7 C 18,9 C 50 % 1021,4 hPa 0,0 l/m 2 min 0 min 336 W/m 6,4 km/h (2 Bft) 95,74 %
15.07.2022 19:14 23,2 C 26,1 C 18,9 C 49 % 1021,4 hPa 0,0 l/m 2 min 0 min 320 W/m 16,1 km/h (3 Bft) 93,62 %
15.07.2022 19:16 23,1 C 25,0 C 18,9 C 50 % 1021,4 hPa 0,0 l/m 2 min 0 min 323 W/m 12,9 km/h (3 Bft) 95,65 %
15.07.2022 19:18 23,0 C 24,4 C 18,3 C 52 % 1021,4 hPa 0,0 l/m 2 min 0 min 183 W/m 6,4 km/h (2 Bft) 95,74 %
15.07.2022 19:20 22,9 C 23,3 C 18,3 C 51 % 1021,4 hPa 0,0 l/m 0 min 0 min 127 W/m 12,9 km/h (3 Bft) 95,74 %
15.07.2022 19:22 22,9 C 23,3 C 18,3 C 51 % 1021,4 hPa 0,0 l/m 0 min 0 min 104 W/m 6,4 km/h (2 Bft) 93,62 %
15.07.2022 19:24 22,8 C 22,8 C 18,3 C 51 % 1021,4 hPa 0,0 l/m 0 min 0 min 96 W/m 6,4 km/h (2 Bft) 95,74 %
15.07.2022 19:26 22,8 C 22,2 C 18,3 C 51 % 1021,4 hPa 0,0 l/m 0 min 0 min 135 W/m 9,7 km/h (2 Bft) 91,49 %
15.07.2022 19:28 22,7 C 22,2 C 17,8 C 52 % 1021,4 hPa 0,0 l/m 0 min 0 min 104 W/m 12,9 km/h (3 Bft) 95,65 %
15.07.2022 19:30 22,6 C 21,7 C 17,8 C 52 % 1021,4 hPa 0,0 l/m 0 min 0 min 86 W/m 12,9 km/h (3 Bft) 95,74 %
15.07.2022 19:32 22,6 C 21,7 C 17,8 C 52 % 1021,5 hPa 0,0 l/m 0 min 0 min 92 W/m 9,7 km/h (2 Bft) 93,62 %
15.07.2022 19:34 22,4 C 21,7 C 17,8 C 52 % 1021,5 hPa 0,0 l/m 0 min 0 min 110 W/m 6,4 km/h (2 Bft) 95,74 %
15.07.2022 19:36 22,4 C 21,7 C 17,8 C 53 % 1021,5 hPa 0,0 l/m 0 min 0 min 98 W/m 12,9 km/h (3 Bft) 95,74 %
15.07.2022 19:38 22,3 C 21,7 C 17,8 C 52 % 1021,5 hPa 0,0 l/m 0 min 0 min 92 W/m 9,7 km/h (2 Bft) 95,74 %
15.07.2022 19:40 22,2 C 21,7 C 17,8 C 52 % 1021,5 hPa 0,0 l/m 0 min 0 min 84 W/m 6,4 km/h (2 Bft) 95,65 %
15.07.2022 19:42 22,2 C 21,7 C 17,8 C 53 % 1021,5 hPa 0,0 l/m 0 min 0 min 78 W/m 6,4 km/h (2 Bft) 95,74 %
15.07.2022 19:44 22,1 C 21,1 C 17,8 C 53 % 1021,5 hPa 0,0 l/m 0 min 0 min 74 W/m 9,7 km/h (2 Bft) 95,74 %
15.07.2022 19:46 22,1 C 21,1 C 17,8 C 54 % 1021,4 hPa 0,0 l/m 0 min 0 min 66 W/m 6,4 km/h (2 Bft) 93,62 %
15.07.2022 19:48 22,1 C 21,1 C 17,2 C 54 % 1021,5 hPa 0,0 l/m 0 min 0 min 62 W/m 12,9 km/h (3 Bft) 93,62 %
15.07.2022 19:50 22,0 C 21,1 C 17,2 C 54 % 1021,5 hPa 0,0 l/m 0 min 0 min 58 W/m 6,4 km/h (2 Bft) 97,83 %
15.07.2022 19:52 21,9 C 21,1 C 17,2 C 55 % 1021,6 hPa 0,0 l/m 0 min 0 min 59 W/m 6,4 km/h (2 Bft) 97,87 %
15.07.2022 19:54 21,9 C 21,1 C 17,2 C 55 % 1021,6 hPa 0,0 l/m 0 min 0 min 61 W/m 6,4 km/h (2 Bft) 97,87 %
15.07.2022 19:56 21,8 C 21,1 C 17,2 C 54 % 1021,6 hPa 0,0 l/m 0 min 0 min 65 W/m 6,4 km/h (2 Bft) 93,62 %
15.07.2022 19:58 21,8 C 20,6 C 17,2 C 54 % 1021,5 hPa 0,0 l/m 0 min 0 min 69 W/m 12,9 km/h (3 Bft) 97,87 %
15.07.2022 20:00 21,7 C 21,1 C 17,2 C 54 % 1021,5 hPa 0,0 l/m 0 min 0 min 79 W/m 6,4 km/h (2 Bft) 95,74 %
15.07.2022 20:02 21,7 C 21,1 C 17,2 C 55 % 1021,5 hPa 0,0 l/m 0 min 0 min 92 W/m 9,7 km/h (2 Bft) 95,74 %
15.07.2022 20:04 21,7 C 21,1 C 17,2 C 55 % 1021,5 hPa 0,0 l/m 0 min 0 min 106 W/m 3,2 km/h (1 Bft) 97,83 %
15.07.2022 20:06 21,7 C 21,1 C 17,8 C 56 % 1021,5 hPa 0,0 l/m 2 min 0 min 107 W/m 3,2 km/h (1 Bft) 95,74 %
15.07.2022 20:08 21,7 C 21,1 C 17,8 C 56 % 1021,5 hPa 0,0 l/m 2 min 0 min 113 W/m 3,2 km/h (1 Bft) 95,74 %
15.07.2022 20:10 21,7 C 21,7 C 17,8 C 55 % 1021,5 hPa 0,0 l/m 2 min 0 min 108 W/m 3,2 km/h (1 Bft) 95,74 %
15.07.2022 20:12 21,7 C 21,1 C 17,8 C 56 % 1021,5 hPa 0,0 l/m 0 min 0 min 92 W/m 3,2 km/h (1 Bft) 97,87 %
15.07.2022 20:14 21,7 C 21,1 C 17,8 C 56 % 1021,5 hPa 0,0 l/m 0 min 0 min 75 W/m 6,4 km/h (2 Bft) 97,83 %
15.07.2022 20:16 21,7 C 21,1 C 17,8 C 56 % 1021,5 hPa 0,0 l/m 0 min 0 min 63 W/m 9,7 km/h (2 Bft) 97,87 %
15.07.2022 20:18 21,7 C 21,1 C 17,2 C 57 % 1021,5 hPa 0,0 l/m 0 min 0 min 65 W/m 3,2 km/h (1 Bft) 95,74 %
15.07.2022 20:20 21,7 C 21,1 C 17,2 C 57 % 1021,5 hPa 0,0 l/m 0 min 0 min 68 W/m 3,2 km/h (1 Bft) 95,74 %
15.07.2022 20:22 21,7 C 21,1 C 17,2 C 60 % 1021,4 hPa 0,0 l/m 0 min 0 min 63 W/m 6,4 km/h (2 Bft) 97,87 %
15.07.2022 20:24 21,7 C 21,1 C 17,2 C 56 % 1021,5 hPa 0,0 l/m 0 min 0 min 59 W/m 9,7 km/h (2 Bft) 97,87 %
15.07.2022 20:26 21,6 C 21,1 C 17,2 C 57 % 1021,4 hPa 0,0 l/m 0 min 0 min 51 W/m 6,4 km/h (2 Bft) 97,83 %
15.07.2022 20:28 21,6 C 20,6 C 17,2 C 56 % 1021,4 hPa 0,0 l/m 0 min 0 min 44 W/m 6,4 km/h (2 Bft) 97,87 %
15.07.2022 20:30 21,6 C 20,6 C 17,2 C 56 % 1021,4 hPa 0,0 l/m 0 min 0 min 42 W/m 9,7 km/h (2 Bft) 97,87 %
15.07.2022 20:32 21,5 C 20,6 C 17,2 C 56 % 1021,4 hPa 0,0 l/m 0 min 0 min 40 W/m 6,4 km/h (2 Bft) 97,87 %
15.07.2022 20:34 21,5 C 20,6 C 17,2 C 56 % 1021,4 hPa 0,0 l/m 0 min 0 min 42 W/m 6,4 km/h (2 Bft) 97,87 %
15.07.2022 20:36 21,4 C 20,6 C 17,2 C 56 % 1021,4 hPa 0,0 l/m 0 min 0 min 43 W/m 3,2 km/h (1 Bft) 97,87 %
15.07.2022 20:38 21,4 C 20,6 C 17,2 C 57 % 1021,4 hPa 0,0 l/m 0 min 0 min 42 W/m 6,4 km/h (2 Bft) 100,00 %
15.07.2022 20:40 21,4 C 20,6 C 16,7 C 57 % 1021,4 hPa 0,0 l/m 0 min 0 min 42 W/m 6,4 km/h (2 Bft) 100,00 %
15.07.2022 20:42 21,3 C 20,6 C 16,7 C 57 % 1021,4 hPa 0,0 l/m 0 min 0 min 44 W/m 6,4 km/h (2 Bft) 97,87 %
15.07.2022 20:44 21,3 C 20,6 C 16,7 C 57 % 1021,4 hPa 0,0 l/m 0 min 0 min 44 W/m 6,4 km/h (2 Bft) 100,00 %
15.07.2022 20:46 21,3 C 20,6 C 16,7 C 57 % 1021,4 hPa 0,0 l/m 0 min 0 min 47 W/m 6,4 km/h (2 Bft) 100,00 %
15.07.2022 20:48 21,2 C 20,0 C 16,7 C 57 % 1021,4 hPa 0,0 l/m 0 min 0 min 49 W/m 9,7 km/h (2 Bft) 100,00 %
15.07.2022 20:50 21,2 C 20,0 C 16,7 C 57 % 1021,3 hPa 0,0 l/m 0 min 0 min 47 W/m 6,4 km/h (2 Bft) 100,00 %
15.07.2022 20:52 21,2 C 20,0 C 16,7 C 57 % 1021,3 hPa 0,0 l/m 0 min 0 min 48 W/m 9,7 km/h (2 Bft) 97,87 %
15.07.2022 20:54 21,2 C 20,0 C 16,7 C 57 % 1021,3 hPa 0,0 l/m 2 min 0 min 49 W/m 3,2 km/h (1 Bft) 100,00 %
15.07.2022 20:56 21,1 C 20,0 C 16,7 C 57 % 1021,3 hPa 0,0 l/m 0 min 0 min 45 W/m 3,2 km/h (1 Bft) 100,00 %
15.07.2022 20:58 21,1 C 20,0 C 16,7 C 58 % 1021,3 hPa 0,0 l/m 0 min 0 min 38 W/m 3,2 km/h (1 Bft) 100,00 %
15.07.2022 21:00 21,1 C 20,0 C 16,7 C 58 % 1021,3 hPa 0,0 l/m 0 min 0 min 32 W/m 3,2 km/h (1 Bft) 97,87 %
15.07.2022 21:02 21,1 C 20,0 C 16,7 C 58 % 1021,3 hPa 0,0 l/m 0 min 0 min 27 W/m 12,9 km/h (3 Bft) 100,00 %
15.07.2022 21:04 21,1 C 20,0 C 16,7 C 58 % 1021,3 hPa 0,0 l/m 0 min 0 min 25 W/m 3,2 km/h (1 Bft) 100,00 %
15.07.2022 21:06 21,1 C 20,0 C 16,7 C 58 % 1021,3 hPa 0,0 l/m 0 min 0 min 22 W/m 3,2 km/h (1 Bft) 100,00 %
15.07.2022 21:08 21,0 C 20,0 C 16,7 C 58 % 1021,4 hPa 0,0 l/m 0 min 0 min 21 W/m 3,2 km/h (1 Bft) 100,00 %
15.07.2022 21:10 20,9 C 20,0 C 16,1 C 59 % 1021,4 hPa 0,0 l/m 0 min 0 min 19 W/m 3,2 km/h (1 Bft) 100,00 %
15.07.2022 21:12 20,9 C 20,0 C 16,1 C 59 % 1021,3 hPa 0,0 l/m 0 min 0 min 19 W/m 6,4 km/h (2 Bft) 100,00 %
15.07.2022 21:14 20,9 C 19,4 C 16,1 C 59 % 1021,4 hPa 0,0 l/m 0 min 0 min 18 W/m 3,2 km/h (1 Bft) 100,00 %
15.07.2022 21:16 20,8 C 19,4 C 16,1 C 59 % 1021,3 hPa 0,0 l/m 0 min 0 min 18 W/m 3,2 km/h (1 Bft) 100,00 %
15.07.2022 21:18 20,8 C 19,4 C 16,1 C 60 % 1021,4 hPa 0,0 l/m 0 min 0 min 18 W/m 0,0 km/h (0 Bft) 100,00 %
15.07.2022 21:20 20,8 C 19,4 C 16,1 C 59 % 1021,4 hPa 0,0 l/m 0 min 0 min 19 W/m 3,2 km/h (1 Bft) 100,00 %
15.07.2022 21:22 20,8 C 19,4 C 16,1 C 59 % 1021,5 hPa 0,0 l/m 0 min 0 min 19 W/m 3,2 km/h (1 Bft) 100,00 %
15.07.2022 21:24 20,7 C 19,4 C 16,1 C 59 % 1021,4 hPa 0,0 l/m 0 min 0 min 17 W/m 3,2 km/h (1 Bft) 100,00 %
15.07.2022 21:26 20,7 C 19,4 C 16,1 C 60 % 1021,5 hPa 0,0 l/m 0 min 0 min 15 W/m 3,2 km/h (1 Bft) 100,00 %
15.07.2022 21:28 20,7 C 19,4 C 16,1 C 61 % 1021,5 hPa 0,0 l/m 0 min 0 min 13 W/m 3,2 km/h (1 Bft) 100,00 %
15.07.2022 21:30 20,6 C 19,4 C 16,1 C 61 % 1021,4 hPa 0,0 l/m 0 min 0 min 11 W/m 3,2 km/h (1 Bft) 97,87 %
15.07.2022 21:32 20,6 C 19,4 C 15,6 C 61 % 1021,5 hPa 0,0 l/m 0 min 0 min 9 W/m 3,2 km/h (1 Bft) 97,87 %
15.07.2022 21:34 20,6 C 18,9 C 15,6 C 62 % 1021,5 hPa 0,0 l/m 0 min 0 min 8 W/m 0,0 km/h (0 Bft) 97,87 %
15.07.2022 21:36 20,5 C 18,9 C 15,6 C 62 % 1021,5 hPa 0,0 l/m 0 min 0 min 7 W/m 3,2 km/h (1 Bft) 97,87 %
15.07.2022 21:38 20,5 C 18,9 C 15,6 C 63 % 1021,5 hPa 0,0 l/m 0 min 0 min 7 W/m 3,2 km/h (1 Bft) 100,00 %
15.07.2022 21:40 20,4 C 18,9 C 15,6 C 62 % 1021,6 hPa 0,0 l/m 0 min 0 min 5 W/m 6,4 km/h (2 Bft) 97,87 %
15.07.2022 21:42 20,4 C 18,9 C 15,6 C 62 % 1021,5 hPa 0,0 l/m 0 min 0 min 5 W/m 3,2 km/h (1 Bft) 97,87 %
15.07.2022 21:44 20,3 C 18,9 C 15,6 C 62 % 1021,6 hPa 0,0 l/m 0 min 0 min 2 W/m 3,2 km/h (1 Bft) 97,87 %
15.07.2022 21:46 20,3 C 18,9 C 15,0 C 62 % 1021,5 hPa 0,0 l/m 0 min 0 min 0 W/m 3,2 km/h (1 Bft) 97,87 %
15.07.2022 21:48 20,3 C 18,3 C 15,0 C 63 % 1021,6 hPa 0,0 l/m 0 min 0 min 0 W/m 3,2 km/h (1 Bft) 95,74 %
15.07.2022 21:50 20,2 C 18,3 C 15,0 C 62 % 1021,6 hPa 0,0 l/m 0 min 0 min 0 W/m 3,2 km/h (1 Bft) 93,48 %
15.07.2022 21:52 20,2 C 18,3 C 15,0 C 63 % 1021,6 hPa 0,0 l/m 0 min 0 min 0 W/m 3,2 km/h (1 Bft) 95,74 %
15.07.2022 21:54 20,1 C 18,3 C 15,0 C 63 % 1021,6 hPa 0,0 l/m 0 min 0 min 0 W/m 3,2 km/h (1 Bft) 95,74 %
15.07.2022 21:56 20,1 C 18,3 C 15,0 C 64 % 1021,6 hPa 0,0 l/m 0 min 0 min 0 W/m 3,2 km/h (1 Bft) 95,74 %
15.07.2022 21:58 20,0 C 18,3 C 15,0 C 63 % 1021,6 hPa 0,0 l/m 0 min 0 min 0 W/m 3,2 km/h (1 Bft) 95,74 %
15.07.2022 22:00 20,0 C 18,3 C 14,4 C 64 % 1021,6 hPa 0,0 l/m 0 min 0 min 0 W/m 0,0 km/h (0 Bft) 91,49 %
15.07.2022 22:02 19,9 C 17,8 C 14,4 C 65 % 1021,6 hPa 0,0 l/m 0 min 0 min 0 W/m 0,0 km/h (0 Bft) 93,48 %
15.07.2022 22:04 19,8 C 17,8 C 14,4 C 64 % 1021,6 hPa 0,0 l/m 0 min 0 min 0 W/m 0,0 km/h (0 Bft) 95,74 %
15.07.2022 22:06 19,8 C 17,8 C 14,4 C 65 % 1021,6 hPa 0,0 l/m 0 min 0 min 0 W/m 0,0 km/h (0 Bft) 91,49 %
15.07.2022 22:08 19,7 C 17,8 C 13,9 C 65 % 1021,7 hPa 0,0 l/m 0 min 0 min 0 W/m 0,0 km/h (0 Bft) 91,49 %
15.07.2022 22:10 19,7 C 17,8 C 13,9 C 66 % 1021,7 hPa 0,0 l/m 0 min 0 min 0 W/m 0,0 km/h (0 Bft) 93,62 %
15.07.2022 22:12 19,7 C 17,2 C 13,9 C 67 % 1021,7 hPa 0,0 l/m 0 min 0 min 0 W/m 0,0 km/h (0 Bft) 91,49 %
15.07.2022 22:14 19,6 C 17,2 C 13,9 C 67 % 1021,7 hPa 0,0 l/m 0 min 0 min 0 W/m 0,0 km/h (0 Bft) 93,48 %
15.07.2022 22:16 19,5 C 17,2 C 13,9 C 67 % 1021,7 hPa 0,0 l/m 0 min 0 min 0 W/m 0,0 km/h (0 Bft) 89,36 %
15.07.2022 22:18 19,4 C 17,2 C 13,9 C 66 % 1021,7 hPa 0,0 l/m 0 min 0 min 0 W/m 0,0 km/h (0 Bft) 91,49 %
15.07.2022 22:20 19,3 C 17,2 C 13,9 C 66 % 1021,7 hPa 0,0 l/m 0 min 0 min 0 W/m 0,0 km/h (0 Bft) 91,49 %
15.07.2022 22:22 19,2 C 17,2 C 13,9 C 66 % 1021,7 hPa 0,0 l/m 0 min 0 min 0 W/m 0,0 km/h (0 Bft) 93,62 %
15.07.2022 22:24 19,1 C 17,2 C 13,9 C 67 % 1021,7 hPa 0,0 l/m 0 min 0 min 0 W/m 0,0 km/h (0 Bft) 89,36 %
15.07.2022 22:26 19,1 C 17,2 C 13,9 C 66 % 1021,6 hPa 0,0 l/m 0 min 0 min 0 W/m 0,0 km/h (0 Bft) 95,65 %
15.07.2022 22:28 18,9 C 17,2 C 13,9 C 67 % 1021,7 hPa 0,0 l/m 0 min 0 min 0 W/m 0,0 km/h (0 Bft) 95,74 %
15.07.2022 22:30 18,8 C 17,2 C 13,9 C 67 % 1021,7 hPa 0,0 l/m 0 min 0 min 0 W/m 0,0 km/h (0 Bft) 95,74 %
15.07.2022 22:32 18,8 C 17,2 C 13,3 C 67 % 1021,7 hPa 0,0 l/m 0 min 0 min 0 W/m 0,0 km/h (0 Bft) 93,62 %
15.07.2022 22:34 18,8 C 17,2 C 13,3 C 67 % 1021,7 hPa 0,0 l/m 0 min 0 min 0 W/m 0,0 km/h (0 Bft) 97,87 %
15.07.2022 22:36 18,7 C 16,7 C 13,3 C 68 % 1021,6 hPa 0,0 l/m 0 min 0 min 0 W/m 0,0 km/h (0 Bft) 97,87 %
15.07.2022 22:38 18,7 C 16,7 C 13,3 C 69 % 1021,6 hPa 0,0 l/m 0 min 0 min 0 W/m 0,0 km/h (0 Bft) 95,65 %
15.07.2022 22:40 18,7 C 16,7 C 13,3 C 69 % 1021,6 hPa 0,0 l/m 0 min 0 min 0 W/m 0,0 km/h (0 Bft) 97,87 %
15.07.2022 22:42 18,6 C 16,7 C 13,3 C 70 % 1021,6 hPa 0,0 l/m 0 min 0 min 0 W/m 0,0 km/h (0 Bft) 97,87 %
15.07.2022 22:44 18,6 C 16,7 C 13,3 C 70 % 1021,6 hPa 0,0 l/m 0 min 0 min 0 W/m 0,0 km/h (0 Bft) 97,87 %
15.07.2022 22:46 18,6 C 16,7 C 13,3 C 71 % 1021,6 hPa 0,0 l/m 0 min 0 min 0 W/m 0,0 km/h (0 Bft) 95,74 %
15.07.2022 22:48 18,6 C 16,7 C 13,3 C 71 % 1021,6 hPa 0,0 l/m 0 min 0 min 0 W/m 0,0 km/h (0 Bft) 95,74 %
15.07.2022 22:50 18,5 C 16,7 C 12,8 C 72 % 1021,6 hPa 0,0 l/m 0 min 0 min 0 W/m 0,0 km/h (0 Bft) 100,00 %
15.07.2022 22:52 18,4 C 16,7 C 12,8 C 72 % 1021,6 hPa 0,0 l/m 0 min 0 min 0 W/m 0,0 km/h (0 Bft) 100,00 %
15.07.2022 22:54 18,4 C 16,7 C 12,8 C 72 % 1021,6 hPa 0,0 l/m 0 min 0 min 0 W/m 0,0 km/h (0 Bft) 100,00 %
15.07.2022 22:56 18,3 C 16,1 C 12,8 C 72 % 1021,6 hPa 0,0 l/m 0 min 0 min 0 W/m 0,0 km/h (0 Bft) 97,87 %
15.07.2022 22:58 18,3 C 16,1 C 12,8 C 72 % 1021,6 hPa 0,0 l/m 0 min 0 min 0 W/m 0,0 km/h (0 Bft) 100,00 %
15.07.2022 23:00 18,3 C 16,1 C 12,8 C 72 % 1021,6 hPa 0,0 l/m 0 min 0 min 0 W/m 0,0 km/h (0 Bft) 100,00 %
15.07.2022 23:02 18,2 C 16,1 C 12,8 C 72 % 1021,7 hPa 0,0 l/m 0 min 0 min 0 W/m 0,0 km/h (0 Bft) 100,00 %
15.07.2022 23:04 18,2 C 16,1 C 12,8 C 73 % 1021,7 hPa 0,0 l/m 0 min 0 min 0 W/m 0,0 km/h (0 Bft) 100,00 %
15.07.2022 23:06 18,1 C 16,1 C 12,8 C 73 % 1021,7 hPa 0,0 l/m 0 min 0 min 0 W/m 0,0 km/h (0 Bft) 98,31 %
15.07.2022 23:08 18,0 C 16,1 C 12,8 C 72 % 1021,7 hPa 0,0 l/m 0 min 0 min 0 W/m 0,0 km/h (0 Bft) 100,00 %
15.07.2022 23:10 17,9 C 16,1 C 12,8 C 72 % 1021,7 hPa 0,0 l/m 0 min 0 min 0 W/m 0,0 km/h (0 Bft) 100,00 %
15.07.2022 23:12 17,8 C 16,1 C 12,8 C 71 % 1021,6 hPa 0,0 l/m 0 min 0 min 0 W/m 0,0 km/h (0 Bft) 100,00 %
15.07.2022 23:14 17,8 C 16,1 C 12,8 C 72 % 1021,6 hPa 0,0 l/m 0 min 0 min 0 W/m 0,0 km/h (0 Bft) 100,00 %
15.07.2022 23:16 17,8 C 16,1 C 12,8 C 72 % 1021,6 hPa 0,0 l/m 0 min 0 min 0 W/m 0,0 km/h (0 Bft) 100,00 %
15.07.2022 23:18 17,7 C 16,1 C 12,8 C 73 % 1021,6 hPa 0,0 l/m 0 min 0 min 0 W/m 0,0 km/h (0 Bft) 100,00 %
15.07.2022 23:20 17,7 C 16,1 C 12,8 C 73 % 1021,6 hPa 0,0 l/m 0 min 0 min 0 W/m 0,0 km/h (0 Bft) 98,00 %
15.07.2022 23:22 17,7 C 16,1 C 12,8 C 74 % 1021,6 hPa 0,0 l/m 0 min 0 min 0 W/m 0,0 km/h (0 Bft) 97,87 %
15.07.2022 23:24 17,7 C 16,1 C 12,8 C 74 % 1021,5 hPa 0,0 l/m 0 min 0 min 0 W/m 0,0 km/h (0 Bft) 100,00 %
15.07.2022 23:26 17,7 C 16,1 C 12,8 C 75 % 1021,6 hPa 0,0 l/m 0 min 0 min 0 W/m 0,0 km/h (0 Bft) 100,00 %
15.07.2022 23:28 17,6 C 16,1 C 12,8 C 75 % 1021,6 hPa 0,0 l/m 0 min 0 min 0 W/m 0,0 km/h (0 Bft) 97,83 %
15.07.2022 23:30 17,6 C 16,1 C 12,2 C 75 % 1021,6 hPa 0,0 l/m 0 min 0 min 0 W/m 0,0 km/h (0 Bft) 100,00 %
15.07.2022 23:32 17,6 C 16,1 C 12,2 C 75 % 1021,6 hPa 0,0 l/m 0 min 0 min 0 W/m 0,0 km/h (0 Bft) 100,00 %
15.07.2022 23:34 17,5 C 15,6 C 12,2 C 75 % 1021,6 hPa 0,0 l/m 0 min 0 min 0 W/m 0,0 km/h (0 Bft) 100,00 %
15.07.2022 23:36 17,5 C 15,6 C 12,2 C 75 % 1021,5 hPa 0,0 l/m 0 min 0 min 0 W/m 0,0 km/h (0 Bft) 100,00 %
15.07.2022 23:38 17,4 C 15,6 C 12,2 C 75 % 1021,6 hPa 0,0 l/m 0 min 0 min 0 W/m 0,0 km/h (0 Bft) 100,00 %
15.07.2022 23:40 17,3 C 15,6 C 12,2 C 75 % 1021,6 hPa 0,0 l/m 0 min 0 min 0 W/m 0,0 km/h (0 Bft) 97,83 %
15.07.2022 23:42 17,3 C 15,6 C 12,2 C 75 % 1021,6 hPa 0,0 l/m 0 min 0 min 0 W/m 0,0 km/h (0 Bft) 97,87 %
15.07.2022 23:44 17,3 C 15,6 C 12,2 C 75 % 1021,6 hPa 0,0 l/m 0 min 0 min 0 W/m 0,0 km/h (0 Bft) 97,87 %
15.07.2022 23:46 17,2 C 15,6 C 12,2 C 75 % 1021,7 hPa 0,0 l/m 0 min 0 min 0 W/m 0,0 km/h (0 Bft) 97,87 %
15.07.2022 23:48 17,2 C 15,6 C 12,2 C 75 % 1021,6 hPa 0,0 l/m 0 min 0 min 0 W/m 0,0 km/h (0 Bft) 97,87 %
15.07.2022 23:50 17,2 C 15,6 C 12,2 C 75 % 1021,6 hPa 0,0 l/m 0 min 0 min 0 W/m 0,0 km/h (0 Bft) 97,83 %
15.07.2022 23:52 17,1 C 15,6 C 12,2 C 75 % 1021,6 hPa 0,0 l/m 0 min 0 min 0 W/m 0,0 km/h (0 Bft) 97,87 %
15.07.2022 23:54 17,1 C 15,6 C 12,2 C 74 % 1021,6 hPa 0,0 l/m 0 min 0 min 0 W/m 3,2 km/h (1 Bft) 97,87 %
15.07.2022 23:56 17,0 C 15,6 C 12,2 C 74 % 1021,6 hPa 0,0 l/m 0 min 0 min 0 W/m 3,2 km/h (1 Bft) 97,87 %
15.07.2022 23:58 16,9 C 15,6 C 12,2 C 74 % 1021,6 hPa 0,0 l/m 0 min 0 min 0 W/m 0,0 km/h (0 Bft) 97,87 %
_ Min-Zeit 05:58 05:12 05:46 17:28 20:50 - - - - 01:58 06:12
Minimum _ 13,1 C 12,2 C 8,9 C 49 % 1021,3 hPa - - - - 0,0 km/h (0 Bft) 53,33 %
_ Max-Zeit 18:12 17:18 13:48 06:30 09:28 00:00 18:07 00:00 14:04 15:34 00:34
Maximum _ 23,9 C 29,4 C 25,6 C 90 % 1023,7 hPa 0,0 l/m 3 min 0 min 1157 W/m 25,7 km/h
N-NW (4 Bft)
100,00 %
Durchschnitt _ 18,7 C 19,1 C 15,0 C 68 % 1022,5 hPa #0,0 l/m #7:23 h #0 min. 362 W/m 7,2 km/h (2 Bft) 97,59 %
© 2022 W. Hausmann